﻿<?xml version="1.0" encoding="utf-8"?><gpx creator="Garmin Desktop App" version="1.1" xsi:schemaLocation="http://www.topografix.com/GPX/1/1 http://www.topografix.com/GPX/1/1/gpx.xsd http://www.garmin.com/xmlschemas/WaypointExtension/v1 http://www8.garmin.com/xmlschemas/WaypointExtensionv1.xsd http://www.garmin.com/xmlschemas/TrackPointExtension/v1 http://www.garmin.com/xmlschemas/TrackPointExtensionv1.xsd http://www.garmin.com/xmlschemas/GpxExtensions/v3 http://www8.garmin.com/xmlschemas/GpxExtensionsv3.xsd http://www.garmin.com/xmlschemas/ActivityExtension/v1 http://www8.garmin.com/xmlschemas/ActivityExtensionv1.xsd http://www.garmin.com/xmlschemas/AdventuresExtensions/v1 http://www8.garmin.com/xmlschemas/AdventuresExtensionv1.xsd http://www.garmin.com/xmlschemas/PressureExtension/v1 http://www.garmin.com/xmlschemas/PressureExtensionv1.xsd http://www.garmin.com/xmlschemas/TripExtensions/v1 http://www.garmin.com/xmlschemas/TripExtensionsv1.xsd http://www.garmin.com/xmlschemas/TripMetaDataExtensions/v1 http://www.garmin.com/xmlschemas/TripMetaDataExtensionsv1.xsd http://www.garmin.com/xmlschemas/ViaPointTransportationModeExtensions/v1 http://www.garmin.com/xmlschemas/ViaPointTransportationModeExtensionsv1.xsd http://www.garmin.com/xmlschemas/CreationTimeExtension/v1 http://www.garmin.com/xmlschemas/CreationTimeExtensionsv1.xsd http://www.garmin.com/xmlschemas/AccelerationExtension/v1 http://www.garmin.com/xmlschemas/AccelerationExtensionv1.xsd http://www.garmin.com/xmlschemas/PowerExtension/v1 http://www.garmin.com/xmlschemas/PowerExtensionv1.xsd http://www.garmin.com/xmlschemas/VideoExtension/v1 http://www.garmin.com/xmlschemas/VideoExtensionv1.xsd" xmlns="http://www.topografix.com/GPX/1/1" xmlns:xsi="http://www.w3.org/2001/XMLSchema-instance" xmlns:wptx1="http://www.garmin.com/xmlschemas/WaypointExtension/v1" xmlns:gpxtrx="http://www.garmin.com/xmlschemas/GpxExtensions/v3" xmlns:gpxtpx="http://www.garmin.com/xmlschemas/TrackPointExtension/v1" xmlns:gpxx="http://www.garmin.com/xmlschemas/GpxExtensions/v3" xmlns:trp="http://www.garmin.com/xmlschemas/TripExtensions/v1" xmlns:adv="http://www.garmin.com/xmlschemas/AdventuresExtensions/v1" xmlns:prs="http://www.garmin.com/xmlschemas/PressureExtension/v1" xmlns:tmd="http://www.garmin.com/xmlschemas/TripMetaDataExtensions/v1" xmlns:vptm="http://www.garmin.com/xmlschemas/ViaPointTransportationModeExtensions/v1" xmlns:ctx="http://www.garmin.com/xmlschemas/CreationTimeExtension/v1" xmlns:gpxacc="http://www.garmin.com/xmlschemas/AccelerationExtension/v1" xmlns:gpxpx="http://www.garmin.com/xmlschemas/PowerExtension/v1" xmlns:vidx1="http://www.garmin.com/xmlschemas/VideoExtension/v1">

  <metadata>
    <link href="http://www.garmin.com">
      <text>Garmin International</text>
    </link>
    <time>2021-07-12T08:22:38Z</time>
    <bounds maxlat="51.186240836977959" maxlon="6.195661509409547" minlat="51.150608025491238" minlon="6.155535914003849" />
  </metadata>

  <trk>
    <name>meinweg 15 km noord via jagershof</name>
    <extensions>
      <gpxx:TrackExtension>
        <gpxx:DisplayColor>DarkBlue</gpxx:DisplayColor>
      </gpxx:TrackExtension>
    </extensions>
    <trkseg>
      <trkpt lat="51.151361223310232" lon="6.15565175190568">
        <ele>95.239999999999995</ele>
        <time>2018-11-04T08:31:25Z</time>
      </trkpt>
      <trkpt lat="51.151372706517577" lon="6.15569768473506">
        <ele>89.340000000000003</ele>
        <time>2018-11-04T08:31:34Z</time>
      </trkpt>
      <trkpt lat="51.151231890544295" lon="6.155664073303342">
        <ele>94.510000000000005</ele>
        <time>2018-11-04T09:07:37Z</time>
      </trkpt>
      <trkpt lat="51.15128930658102" lon="6.155666755512357">
        <ele>95.890000000000001</ele>
        <time>2018-11-04T09:08:03Z</time>
      </trkpt>
      <trkpt lat="51.15129073150456" lon="6.155662313103676">
        <ele>95.870000000000005</ele>
        <time>2018-11-04T09:08:04Z</time>
      </trkpt>
      <trkpt lat="51.151291150599718" lon="6.15565862506628">
        <ele>91.790000000000006</ele>
        <time>2018-11-04T09:08:05Z</time>
      </trkpt>
      <trkpt lat="51.151290060952306" lon="6.155656697228551">
        <ele>96.819999999999993</ele>
        <time>2018-11-04T09:08:06Z</time>
      </trkpt>
      <trkpt lat="51.151248905807734" lon="6.155655607581139">
        <ele>94.030000000000001</ele>
        <time>2018-11-04T09:08:36Z</time>
      </trkpt>
      <trkpt lat="51.15134253166616" lon="6.155629875138402">
        <ele>93.590000000000003</ele>
        <time>2018-11-04T09:09:06Z</time>
      </trkpt>
      <trkpt lat="51.151368096470833" lon="6.155612859874964">
        <ele>92.879999999999995</ele>
        <time>2018-11-04T09:09:45Z</time>
      </trkpt>
      <trkpt lat="51.151350410655141" lon="6.155612608417869">
        <ele>92.299999999999997</ele>
        <time>2018-11-04T09:10:16Z</time>
      </trkpt>
      <trkpt lat="51.151317385956645" lon="6.155583187937737">
        <ele>91.920000000000002</ele>
        <time>2018-11-04T09:10:37Z</time>
      </trkpt>
      <trkpt lat="51.151322750374675" lon="6.155646974220872">
        <ele>91.459999999999994</ele>
        <time>2018-11-04T09:11:02Z</time>
      </trkpt>
      <trkpt lat="51.151337418705225" lon="6.155637251213193">
        <ele>91</ele>
        <time>2018-11-04T09:11:26Z</time>
      </trkpt>
      <trkpt lat="51.151297772303224" lon="6.155590731650591">
        <ele>90.370000000000005</ele>
        <time>2018-11-04T09:11:59Z</time>
      </trkpt>
      <trkpt lat="51.151248570531607" lon="6.155609842389822">
        <ele>89.859999999999999</ele>
        <time>2018-11-04T09:12:26Z</time>
      </trkpt>
      <trkpt lat="51.151242535561323" lon="6.155608501285315">
        <ele>89.879999999999995</ele>
        <time>2018-11-04T09:12:27Z</time>
      </trkpt>
      <trkpt lat="51.151141114532948" lon="6.155666755512357">
        <ele>89.569999999999993</ele>
        <time>2018-11-04T09:12:41Z</time>
      </trkpt>
      <trkpt lat="51.151112029328942" lon="6.155685111880302">
        <ele>89.329999999999998</ele>
        <time>2018-11-04T09:12:53Z</time>
      </trkpt>
      <trkpt lat="51.150932153686881" lon="6.155735487118363">
        <ele>89</ele>
        <time>2018-11-04T09:13:10Z</time>
      </trkpt>
      <trkpt lat="51.150897871702909" lon="6.15574898198247">
        <ele>88.959999999999994</ele>
        <time>2018-11-04T09:13:13Z</time>
      </trkpt>
      <trkpt lat="51.150927878916264" lon="6.1560910474509">
        <ele>87.75</ele>
        <time>2018-11-04T09:13:29Z</time>
      </trkpt>
      <trkpt lat="51.150987474247813" lon="6.156427580863237">
        <ele>87.459999999999994</ele>
        <time>2018-11-04T09:13:44Z</time>
      </trkpt>
      <trkpt lat="51.150992251932621" lon="6.156451553106308">
        <ele>87.430000000000007</ele>
        <time>2018-11-04T09:13:45Z</time>
      </trkpt>
      <trkpt lat="51.151032485067844" lon="6.156626651063561">
        <ele>87.200000000000003</ele>
        <time>2018-11-04T09:13:54Z</time>
      </trkpt>
      <trkpt lat="51.151077914983034" lon="6.156950695440173">
        <ele>86.829999999999998</ele>
        <time>2018-11-04T09:14:09Z</time>
      </trkpt>
      <trkpt lat="51.15115444175899" lon="6.157250348478556">
        <ele>86.409999999999997</ele>
        <time>2018-11-04T09:14:24Z</time>
      </trkpt>
      <trkpt lat="51.151179671287537" lon="6.157318241894245">
        <ele>86.310000000000002</ele>
        <time>2018-11-04T09:14:28Z</time>
      </trkpt>
      <trkpt lat="51.151240356266499" lon="6.157584618777037">
        <ele>85.879999999999995</ele>
        <time>2018-11-04T09:14:41Z</time>
      </trkpt>
      <trkpt lat="51.151261227205396" lon="6.157630886882544">
        <ele>85.810000000000002</ele>
        <time>2018-11-04T09:14:43Z</time>
      </trkpt>
      <trkpt lat="51.151343202218413" lon="6.157864825800061">
        <ele>85.560000000000002</ele>
        <time>2018-11-04T09:14:52Z</time>
      </trkpt>
      <trkpt lat="51.151402881368995" lon="6.158020561560988">
        <ele>85.290000000000006</ele>
        <time>2018-11-04T09:15:00Z</time>
      </trkpt>
      <trkpt lat="51.15151603706181" lon="6.158310910686851">
        <ele>84.760000000000005</ele>
        <time>2018-11-04T09:15:16Z</time>
      </trkpt>
      <trkpt lat="51.151660708710551" lon="6.158481314778328">
        <ele>86.810000000000002</ele>
        <time>2018-11-04T09:15:28Z</time>
      </trkpt>
      <trkpt lat="51.151743018999696" lon="6.158538730815053">
        <ele>86.609999999999999</ele>
        <time>2018-11-04T09:15:35Z</time>
      </trkpt>
      <trkpt lat="51.151893641799688" lon="6.158758420497179">
        <ele>86</ele>
        <time>2018-11-04T09:15:50Z</time>
      </trkpt>
      <trkpt lat="51.15199975669384" lon="6.159100150689483">
        <ele>86.310000000000002</ele>
        <time>2018-11-04T09:16:06Z</time>
      </trkpt>
      <trkpt lat="51.152121461927891" lon="6.159389996901155">
        <ele>86.579999999999998</ele>
        <time>2018-11-04T09:16:21Z</time>
      </trkpt>
      <trkpt lat="51.152184912934899" lon="6.159712532535195">
        <ele>86.109999999999999</ele>
        <time>2018-11-04T09:16:36Z</time>
      </trkpt>
      <trkpt lat="51.152226068079472" lon="6.159820910543203">
        <ele>85.939999999999998</ele>
        <time>2018-11-04T09:16:41Z</time>
      </trkpt>
      <trkpt lat="51.152266804128885" lon="6.159919314086437">
        <ele>85.810000000000002</ele>
        <time>2018-11-04T09:16:46Z</time>
      </trkpt>
      <trkpt lat="51.152318688109517" lon="6.160240676254034">
        <ele>85.459999999999994</ele>
        <time>2018-11-04T09:17:00Z</time>
      </trkpt>
      <trkpt lat="51.152440644800663" lon="6.160461036488414">
        <ele>85.099999999999994</ele>
        <time>2018-11-04T09:17:15Z</time>
      </trkpt>
      <trkpt lat="51.152448020875454" lon="6.160475620999932">
        <ele>85.060000000000002</ele>
        <time>2018-11-04T09:17:16Z</time>
      </trkpt>
      <trkpt lat="51.152576012536883" lon="6.160707464441657">
        <ele>84.599999999999994</ele>
        <time>2018-11-04T09:17:31Z</time>
      </trkpt>
      <trkpt lat="51.152637954801321" lon="6.160852555185556">
        <ele>84.370000000000005</ele>
        <time>2018-11-04T09:17:39Z</time>
      </trkpt>
      <trkpt lat="51.152645582333207" lon="6.160924471914768">
        <ele>81.909999999999997</ele>
        <time>2018-11-04T09:17:42Z</time>
      </trkpt>
      <trkpt lat="51.152606774121523" lon="6.161269890144467">
        <ele>80.640000000000001</ele>
        <time>2018-11-04T09:17:57Z</time>
      </trkpt>
      <trkpt lat="51.152555476874113" lon="6.161535931751132">
        <ele>80.280000000000001</ele>
        <time>2018-11-04T09:18:10Z</time>
      </trkpt>
      <trkpt lat="51.152456318959594" lon="6.161830136552453">
        <ele>79.030000000000001</ele>
        <time>2018-11-04T09:18:24Z</time>
      </trkpt>
      <trkpt lat="51.152408709749579" lon="6.162014286965132">
        <ele>78.849999999999994</ele>
        <time>2018-11-04T09:18:33Z</time>
      </trkpt>
      <trkpt lat="51.152271581813693" lon="6.162293236702681">
        <ele>77.700000000000003</ele>
        <time>2018-11-04T09:18:47Z</time>
      </trkpt>
      <trkpt lat="51.152127161622047" lon="6.162530025467277">
        <ele>77.439999999999998</ele>
        <time>2018-11-04T09:19:01Z</time>
      </trkpt>
      <trkpt lat="51.152095561847091" lon="6.162592386826873">
        <ele>76.109999999999999</ele>
        <time>2018-11-04T09:19:05Z</time>
      </trkpt>
      <trkpt lat="51.15200512111187" lon="6.162791037932038">
        <ele>75.829999999999998</ele>
        <time>2018-11-04T09:19:18Z</time>
      </trkpt>
      <trkpt lat="51.151895569637418" lon="6.163066634908319">
        <ele>75.560000000000002</ele>
        <time>2018-11-04T09:19:32Z</time>
      </trkpt>
      <trkpt lat="51.15179406479001" lon="6.163281882181764">
        <ele>75.239999999999995</ele>
        <time>2018-11-04T09:19:43Z</time>
      </trkpt>
      <trkpt lat="51.151685854420066" lon="6.163494195789099">
        <ele>74.959999999999994</ele>
        <time>2018-11-04T09:19:56Z</time>
      </trkpt>
      <trkpt lat="51.151522658765316" lon="6.163764260709286">
        <ele>74.439999999999998</ele>
        <time>2018-11-04T09:20:15Z</time>
      </trkpt>
      <trkpt lat="51.151421405375004" lon="6.163979675620794">
        <ele>74.129999999999995</ele>
        <time>2018-11-04T09:20:27Z</time>
      </trkpt>
      <trkpt lat="51.151284361258149" lon="6.164309084415436">
        <ele>73.680000000000007</ele>
        <time>2018-11-04T09:20:44Z</time>
      </trkpt>
      <trkpt lat="51.151100378483534" lon="6.164655508473516">
        <ele>73.180000000000007</ele>
        <time>2018-11-04T09:21:05Z</time>
      </trkpt>
      <trkpt lat="51.15101127885282" lon="6.164857931435108">
        <ele>72.900000000000006</ele>
        <time>2018-11-04T09:21:16Z</time>
      </trkpt>
      <trkpt lat="51.150905331596732" lon="6.165117602795363">
        <ele>72.569999999999993</ele>
        <time>2018-11-04T09:21:31Z</time>
      </trkpt>
      <trkpt lat="51.150810196995735" lon="6.165318852290511">
        <ele>74.590000000000003</ele>
        <time>2018-11-04T09:21:41Z</time>
      </trkpt>
      <trkpt lat="51.150739872828126" lon="6.165540721267462">
        <ele>75.180000000000007</ele>
        <time>2018-11-04T09:21:52Z</time>
      </trkpt>
      <trkpt lat="51.150770634412766" lon="6.165654547512531">
        <ele>76.5</ele>
        <time>2018-11-04T09:21:59Z</time>
      </trkpt>
      <trkpt lat="51.150815058499575" lon="6.165706347674131">
        <ele>76.420000000000002</ele>
        <time>2018-11-04T09:22:03Z</time>
      </trkpt>
      <trkpt lat="51.150902733206749" lon="6.165799722075462">
        <ele>76.099999999999994</ele>
        <time>2018-11-04T09:22:14Z</time>
      </trkpt>
      <trkpt lat="51.150899128988385" lon="6.165855461731553">
        <ele>76.870000000000005</ele>
        <time>2018-11-04T09:22:18Z</time>
      </trkpt>
      <trkpt lat="51.15093600936234" lon="6.166233737021685">
        <ele>77.280000000000001</ele>
        <time>2018-11-04T09:22:33Z</time>
      </trkpt>
      <trkpt lat="51.150940787047148" lon="6.166476979851723">
        <ele>77.760000000000005</ele>
        <time>2018-11-04T09:22:42Z</time>
      </trkpt>
      <trkpt lat="51.150963250547647" lon="6.166574796661735">
        <ele>78.930000000000007</ele>
        <time>2018-11-04T09:22:46Z</time>
      </trkpt>
      <trkpt lat="51.150982528924942" lon="6.166675966233015">
        <ele>79.939999999999998</ele>
        <time>2018-11-04T09:22:50Z</time>
      </trkpt>
      <trkpt lat="51.15096484310925" lon="6.167082991451025">
        <ele>81.769999999999996</ele>
        <time>2018-11-04T09:23:05Z</time>
      </trkpt>
      <trkpt lat="51.150941206142306" lon="6.167392954230309">
        <ele>82.109999999999999</ele>
        <time>2018-11-04T09:23:19Z</time>
      </trkpt>
      <trkpt lat="51.150911031290889" lon="6.167756645008922">
        <ele>82.510000000000005</ele>
        <time>2018-11-04T09:23:35Z</time>
      </trkpt>
      <trkpt lat="51.15088714286685" lon="6.168133830651641">
        <ele>82.140000000000001</ele>
        <time>2018-11-04T09:23:51Z</time>
      </trkpt>
      <trkpt lat="51.150887561962008" lon="6.168487882241607">
        <ele>82.019999999999996</ele>
        <time>2018-11-04T09:24:07Z</time>
      </trkpt>
      <trkpt lat="51.15088127553463" lon="6.168598858639598">
        <ele>81.969999999999999</ele>
        <time>2018-11-04T09:24:12Z</time>
      </trkpt>
      <trkpt lat="51.150877168402076" lon="6.168940672650933">
        <ele>84.560000000000002</ele>
        <time>2018-11-04T09:24:26Z</time>
      </trkpt>
      <trkpt lat="51.150905666872859" lon="6.169065982103348">
        <ele>86.689999999999998</ele>
        <time>2018-11-04T09:24:30Z</time>
      </trkpt>
      <trkpt lat="51.150949588045478" lon="6.169214760884643">
        <ele>89.819999999999993</ele>
        <time>2018-11-04T09:24:35Z</time>
      </trkpt>
      <trkpt lat="51.150964172556996" lon="6.169499577954412">
        <ele>93.260000000000005</ele>
        <time>2018-11-04T09:24:47Z</time>
      </trkpt>
      <trkpt lat="51.150971800088882" lon="6.169525980949402">
        <ele>93.239999999999995</ele>
        <time>2018-11-04T09:24:48Z</time>
      </trkpt>
      <trkpt lat="51.150983367115259" lon="6.169785484671593">
        <ele>95.670000000000002</ele>
        <time>2018-11-04T09:25:02Z</time>
      </trkpt>
      <trkpt lat="51.150971297174692" lon="6.169872069731355">
        <ele>96.400000000000006</ele>
        <time>2018-11-04T09:25:06Z</time>
      </trkpt>
      <trkpt lat="51.150968698784709" lon="6.169897299259901">
        <ele>96.400000000000006</ele>
        <time>2018-11-04T09:25:07Z</time>
      </trkpt>
      <trkpt lat="51.150937685742974" lon="6.170228887349367">
        <ele>96.049999999999997</ele>
        <time>2018-11-04T09:25:21Z</time>
      </trkpt>
      <trkpt lat="51.150877168402076" lon="6.170549914240837">
        <ele>95.810000000000002</ele>
        <time>2018-11-04T09:25:38Z</time>
      </trkpt>
      <trkpt lat="51.1508465744555" lon="6.170724844560027">
        <ele>93.310000000000002</ele>
        <time>2018-11-04T09:25:50Z</time>
      </trkpt>
      <trkpt lat="51.150773903355002" lon="6.170990047976375">
        <ele>89.450000000000003</ele>
        <time>2018-11-04T09:26:05Z</time>
      </trkpt>
      <trkpt lat="51.150701986625791" lon="6.17118869908154">
        <ele>86.959999999999994</ele>
        <time>2018-11-04T09:26:14Z</time>
      </trkpt>
      <trkpt lat="51.150630237534642" lon="6.171460524201393">
        <ele>84.849999999999994</ele>
        <time>2018-11-04T09:26:27Z</time>
      </trkpt>
      <trkpt lat="51.150621687993407" lon="6.171844163909555">
        <ele>83.140000000000001</ele>
        <time>2018-11-04T09:26:42Z</time>
      </trkpt>
      <trkpt lat="51.150608025491238" lon="6.172010963782668">
        <ele>82.140000000000001</ele>
        <time>2018-11-04T09:26:49Z</time>
      </trkpt>
      <trkpt lat="51.150644989684224" lon="6.172262504696846">
        <ele>81.140000000000001</ele>
        <time>2018-11-04T09:27:05Z</time>
      </trkpt>
      <trkpt lat="51.150781530886889" lon="6.172373648732901">
        <ele>81.030000000000001</ele>
        <time>2018-11-04T09:27:17Z</time>
      </trkpt>
      <trkpt lat="51.150825452059507" lon="6.172397956252098">
        <ele>83.349999999999994</ele>
        <time>2018-11-04T09:27:20Z</time>
      </trkpt>
      <trkpt lat="51.151042962446809" lon="6.172438273206353">
        <ele>86.030000000000001</ele>
        <time>2018-11-04T09:27:35Z</time>
      </trkpt>
      <trkpt lat="51.151087889447808" lon="6.172458305954933">
        <ele>86.810000000000002</ele>
        <time>2018-11-04T09:27:38Z</time>
      </trkpt>
      <trkpt lat="51.151271872222424" lon="6.172497868537903">
        <ele>89.340000000000003</ele>
        <time>2018-11-04T09:27:51Z</time>
      </trkpt>
      <trkpt lat="51.151427859440446" lon="6.172552099451423">
        <ele>92</ele>
        <time>2018-11-04T09:28:04Z</time>
      </trkpt>
      <trkpt lat="51.151626259088516" lon="6.17258177138865">
        <ele>93.439999999999998</ele>
        <time>2018-11-04T09:28:19Z</time>
      </trkpt>
      <trkpt lat="51.151823233813047" lon="6.172662740573287">
        <ele>94.25</ele>
        <time>2018-11-04T09:28:33Z</time>
      </trkpt>
      <trkpt lat="51.152044851332903" lon="6.172744883224368">
        <ele>94.799999999999997</ele>
        <time>2018-11-04T09:28:49Z</time>
      </trkpt>
      <trkpt lat="51.15217812359333" lon="6.172816213220358">
        <ele>94.650000000000006</ele>
        <time>2018-11-04T09:29:01Z</time>
      </trkpt>
      <trkpt lat="51.152412062510848" lon="6.172863570973277">
        <ele>94.519999999999996</ele>
        <time>2018-11-04T09:29:18Z</time>
      </trkpt>
      <trkpt lat="51.152530163526535" lon="6.172933727502823">
        <ele>94.390000000000001</ele>
        <time>2018-11-04T09:29:29Z</time>
      </trkpt>
      <trkpt lat="51.15253628231585" lon="6.172952838242054">
        <ele>94.329999999999998</ele>
        <time>2018-11-04T09:29:30Z</time>
      </trkpt>
      <trkpt lat="51.152613060548902" lon="6.173179233446717">
        <ele>94.189999999999998</ele>
        <time>2018-11-04T09:29:43Z</time>
      </trkpt>
      <trkpt lat="51.152723701670766" lon="6.173347793519497">
        <ele>93.989999999999995</ele>
        <time>2018-11-04T09:29:54Z</time>
      </trkpt>
      <trkpt lat="51.152921011671424" lon="6.173584833741188">
        <ele>93.810000000000002</ele>
        <time>2018-11-04T09:30:07Z</time>
      </trkpt>
      <trkpt lat="51.153074903413653" lon="6.173821371048689">
        <ele>93.659999999999997</ele>
        <time>2018-11-04T09:30:15Z</time>
      </trkpt>
      <trkpt lat="51.153087643906474" lon="6.173864034935832">
        <ele>93.640000000000001</ele>
        <time>2018-11-04T09:30:16Z</time>
      </trkpt>
      <trkpt lat="51.153100719675422" lon="6.173896137624979">
        <ele>93.620000000000005</ele>
        <time>2018-11-04T09:30:17Z</time>
      </trkpt>
      <trkpt lat="51.153161153197289" lon="6.173998061567545">
        <ele>93.560000000000002</ele>
        <time>2018-11-04T09:30:20Z</time>
      </trkpt>
      <trkpt lat="51.153184119611979" lon="6.174028068780899">
        <ele>93.540000000000006</ele>
        <time>2018-11-04T09:30:21Z</time>
      </trkpt>
      <trkpt lat="51.153205828741193" lon="6.174054136499763">
        <ele>93.510000000000005</ele>
        <time>2018-11-04T09:30:22Z</time>
      </trkpt>
      <trkpt lat="51.153218653053045" lon="6.174077186733484">
        <ele>93.480000000000004</ele>
        <time>2018-11-04T09:30:23Z</time>
      </trkpt>
      <trkpt lat="51.153228962793946" lon="6.174104595556855">
        <ele>93.450000000000003</ele>
        <time>2018-11-04T09:30:24Z</time>
      </trkpt>
      <trkpt lat="51.153248157352209" lon="6.174138290807605">
        <ele>93.420000000000002</ele>
        <time>2018-11-04T09:30:25Z</time>
      </trkpt>
      <trkpt lat="51.153265088796616" lon="6.17417374625802">
        <ele>93.379999999999995</ele>
        <time>2018-11-04T09:30:26Z</time>
      </trkpt>
      <trkpt lat="51.153279757127166" lon="6.174206268042326">
        <ele>93.349999999999994</ele>
        <time>2018-11-04T09:30:27Z</time>
      </trkpt>
      <trkpt lat="51.153316805139184" lon="6.17427583783865">
        <ele>93.299999999999997</ele>
        <time>2018-11-04T09:30:29Z</time>
      </trkpt>
      <trkpt lat="51.153337592259049" lon="6.17431104183197">
        <ele>93.280000000000001</ele>
        <time>2018-11-04T09:30:30Z</time>
      </trkpt>
      <trkpt lat="51.153357122093439" lon="6.174333672970533">
        <ele>93.239999999999995</ele>
        <time>2018-11-04T09:30:31Z</time>
      </trkpt>
      <trkpt lat="51.153378495946527" lon="6.174377929419279">
        <ele>93.209999999999994</ele>
        <time>2018-11-04T09:30:32Z</time>
      </trkpt>
      <trkpt lat="51.15341043099761" lon="6.174416737630963">
        <ele>93.200000000000003</ele>
        <time>2018-11-04T09:30:33Z</time>
      </trkpt>
      <trkpt lat="51.153435911983252" lon="6.174451354891062">
        <ele>93.170000000000002</ele>
        <time>2018-11-04T09:30:34Z</time>
      </trkpt>
      <trkpt lat="51.153458626940846" lon="6.174480356276035">
        <ele>93.109999999999999</ele>
        <time>2018-11-04T09:30:35Z</time>
      </trkpt>
      <trkpt lat="51.153477737680078" lon="6.174506759271026">
        <ele>93.109999999999999</ele>
        <time>2018-11-04T09:30:36Z</time>
      </trkpt>
      <trkpt lat="51.153501626104116" lon="6.174536431208253">
        <ele>93.069999999999993</ele>
        <time>2018-11-04T09:30:37Z</time>
      </trkpt>
      <trkpt lat="51.153529621660709" lon="6.174573982134461">
        <ele>93.040000000000006</ele>
        <time>2018-11-04T09:30:38Z</time>
      </trkpt>
      <trkpt lat="51.153552420437336" lon="6.174594266340137">
        <ele>93.010000000000005</ele>
        <time>2018-11-04T09:30:39Z</time>
      </trkpt>
      <trkpt lat="51.153575303032994" lon="6.174630224704742">
        <ele>92.969999999999999</ele>
        <time>2018-11-04T09:30:40Z</time>
      </trkpt>
      <trkpt lat="51.153599359095097" lon="6.174664758145809">
        <ele>92.959999999999994</ele>
        <time>2018-11-04T09:30:41Z</time>
      </trkpt>
      <trkpt lat="51.153638754040003" lon="6.1746980343014">
        <ele>92.920000000000002</ele>
        <time>2018-11-04T09:30:42Z</time>
      </trkpt>
      <trkpt lat="51.153670437633991" lon="6.174719240516424">
        <ele>92.859999999999999</ele>
        <time>2018-11-04T09:30:43Z</time>
      </trkpt>
      <trkpt lat="51.153694577515125" lon="6.174752600491047">
        <ele>92.819999999999993</ele>
        <time>2018-11-04T09:30:44Z</time>
      </trkpt>
      <trkpt lat="51.153996242210269" lon="6.175105310976505">
        <ele>92.489999999999995</ele>
        <time>2018-11-04T09:30:54Z</time>
      </trkpt>
      <trkpt lat="51.154046952724457" lon="6.17513339035213">
        <ele>92.439999999999998</ele>
        <time>2018-11-04T09:30:55Z</time>
      </trkpt>
      <trkpt lat="51.15411794744432" lon="6.175253167748451">
        <ele>92.340000000000003</ele>
        <time>2018-11-04T09:30:58Z</time>
      </trkpt>
      <trkpt lat="51.154136219993234" lon="6.175283174961805">
        <ele>89.879999999999995</ele>
        <time>2018-11-04T09:30:59Z</time>
      </trkpt>
      <trkpt lat="51.154168322682381" lon="6.175309494137764">
        <ele>89.840000000000003</ele>
        <time>2018-11-04T09:31:00Z</time>
      </trkpt>
      <trkpt lat="51.154374936595559" lon="6.175507893785834">
        <ele>89.629999999999995</ele>
        <time>2018-11-04T09:31:06Z</time>
      </trkpt>
      <trkpt lat="51.154408464208245" lon="6.175530524924398">
        <ele>89.609999999999999</ele>
        <time>2018-11-04T09:31:07Z</time>
      </trkpt>
      <trkpt lat="51.154572498053312" lon="6.175663713365793">
        <ele>88.640000000000001</ele>
        <time>2018-11-04T09:31:12Z</time>
      </trkpt>
      <trkpt lat="51.154958652332425" lon="6.176043916493654">
        <ele>87.359999999999999</ele>
        <time>2018-11-04T09:31:25Z</time>
      </trkpt>
      <trkpt lat="51.155265513807535" lon="6.176364775747061">
        <ele>86.400000000000006</ele>
        <time>2018-11-04T09:31:35Z</time>
      </trkpt>
      <trkpt lat="51.155610932037234" lon="6.176706254482269">
        <ele>86.189999999999998</ele>
        <time>2018-11-04T09:31:45Z</time>
      </trkpt>
      <trkpt lat="51.155725261196494" lon="6.176809603348374">
        <ele>86.140000000000001</ele>
        <time>2018-11-04T09:31:49Z</time>
      </trkpt>
      <trkpt lat="51.155747389420867" lon="6.176834497600794">
        <ele>86.129999999999995</ele>
        <time>2018-11-04T09:31:50Z</time>
      </trkpt>
      <trkpt lat="51.15576951764524" lon="6.17685629054904">
        <ele>86.120000000000005</ele>
        <time>2018-11-04T09:31:51Z</time>
      </trkpt>
      <trkpt lat="51.155789382755756" lon="6.176878586411476">
        <ele>86.099999999999994</ele>
        <time>2018-11-04T09:31:52Z</time>
      </trkpt>
      <trkpt lat="51.155807990580797" lon="6.176902893930674">
        <ele>86.079999999999998</ele>
        <time>2018-11-04T09:31:53Z</time>
      </trkpt>
      <trkpt lat="51.15583062171936" lon="6.176930218935013">
        <ele>86.060000000000002</ele>
        <time>2018-11-04T09:31:54Z</time>
      </trkpt>
      <trkpt lat="51.155854174867272" lon="6.176954107359052">
        <ele>88.400000000000006</ele>
        <time>2018-11-04T09:31:55Z</time>
      </trkpt>
      <trkpt lat="51.155876638367772" lon="6.176976738497615">
        <ele>88.390000000000001</ele>
        <time>2018-11-04T09:31:56Z</time>
      </trkpt>
      <trkpt lat="51.155898598954082" lon="6.176998950541019">
        <ele>88.390000000000001</ele>
        <time>2018-11-04T09:31:57Z</time>
      </trkpt>
      <trkpt lat="51.155924079939723" lon="6.177026443183422">
        <ele>88.370000000000005</ele>
        <time>2018-11-04T09:31:58Z</time>
      </trkpt>
      <trkpt lat="51.156253069639206" lon="6.177363311871886">
        <ele>88.959999999999994</ele>
        <time>2018-11-04T09:32:09Z</time>
      </trkpt>
      <trkpt lat="51.156497318297625" lon="6.177637903019786">
        <ele>88.739999999999995</ele>
        <time>2018-11-04T09:32:18Z</time>
      </trkpt>
      <trkpt lat="51.156700663268566" lon="6.177957756444812">
        <ele>88.540000000000006</ele>
        <time>2018-11-04T09:32:26Z</time>
      </trkpt>
      <trkpt lat="51.156727401539683" lon="6.178007544949651">
        <ele>88.549999999999997</ele>
        <time>2018-11-04T09:32:27Z</time>
      </trkpt>
      <trkpt lat="51.156763695180416" lon="6.178052304312587">
        <ele>88.530000000000001</ele>
        <time>2018-11-04T09:32:28Z</time>
      </trkpt>
      <trkpt lat="51.15678733214736" lon="6.178095554932952">
        <ele>88.5</ele>
        <time>2018-11-04T09:32:29Z</time>
      </trkpt>
      <trkpt lat="51.15680979564786" lon="6.178136290982366">
        <ele>88.480000000000004</ele>
        <time>2018-11-04T09:32:30Z</time>
      </trkpt>
      <trkpt lat="51.156843490898609" lon="6.178168309852481">
        <ele>88.459999999999994</ele>
        <time>2018-11-04T09:32:31Z</time>
      </trkpt>
      <trkpt lat="51.156875425949693" lon="6.178194042295218">
        <ele>88.439999999999998</ele>
        <time>2018-11-04T09:32:32Z</time>
      </trkpt>
      <trkpt lat="51.156902248039842" lon="6.178226312622428">
        <ele>88.420000000000002</ele>
        <time>2018-11-04T09:32:33Z</time>
      </trkpt>
      <trkpt lat="51.156934602186084" lon="6.178267132490873">
        <ele>89.189999999999998</ele>
        <time>2018-11-04T09:32:34Z</time>
      </trkpt>
      <trkpt lat="51.157274655997753" lon="6.178635517135263">
        <ele>89.030000000000001</ele>
        <time>2018-11-04T09:32:45Z</time>
      </trkpt>
      <trkpt lat="51.157362749800086" lon="6.178769208490849">
        <ele>88.980000000000004</ele>
        <time>2018-11-04T09:32:50Z</time>
      </trkpt>
      <trkpt lat="51.157369371503592" lon="6.178794270381331">
        <ele>88.969999999999999</ele>
        <time>2018-11-04T09:32:51Z</time>
      </trkpt>
      <trkpt lat="51.157375993207097" lon="6.178817739710212">
        <ele>88.959999999999994</ele>
        <time>2018-11-04T09:32:52Z</time>
      </trkpt>
      <trkpt lat="51.15744941867888" lon="6.178860571235418">
        <ele>90.069999999999993</ele>
        <time>2018-11-04T09:32:59Z</time>
      </trkpt>
      <trkpt lat="51.157624265179038" lon="6.178676337003708">
        <ele>89.829999999999998</ele>
        <time>2018-11-04T09:33:13Z</time>
      </trkpt>
      <trkpt lat="51.157802296802402" lon="6.17853568866849">
        <ele>89.689999999999998</ele>
        <time>2018-11-04T09:33:26Z</time>
      </trkpt>
      <trkpt lat="51.157954260706902" lon="6.178386239334941">
        <ele>89.620000000000005</ele>
        <time>2018-11-04T09:33:38Z</time>
      </trkpt>
      <trkpt lat="51.158128436654806" lon="6.178224300965667">
        <ele>89.519999999999996</ele>
        <time>2018-11-04T09:33:51Z</time>
      </trkpt>
      <trkpt lat="51.158314598724246" lon="6.178073175251484">
        <ele>89.409999999999997</ele>
        <time>2018-11-04T09:34:06Z</time>
      </trkpt>
      <trkpt lat="51.158489612862468" lon="6.177927581593394">
        <ele>89.340000000000003</ele>
        <time>2018-11-04T09:34:20Z</time>
      </trkpt>
      <trkpt lat="51.158506460487843" lon="6.177903190255165">
        <ele>89.329999999999998</ele>
        <time>2018-11-04T09:34:22Z</time>
      </trkpt>
      <trkpt lat="51.158515429124236" lon="6.177882822230458">
        <ele>89.310000000000002</ele>
        <time>2018-11-04T09:34:23Z</time>
      </trkpt>
      <trkpt lat="51.158524565398693" lon="6.177857425063849">
        <ele>89.310000000000002</ele>
        <time>2018-11-04T09:34:24Z</time>
      </trkpt>
      <trkpt lat="51.158531941473484" lon="6.17782817222178">
        <ele>89.310000000000002</ele>
        <time>2018-11-04T09:34:25Z</time>
      </trkpt>
      <trkpt lat="51.158538898453116" lon="6.177802523598075">
        <ele>89.299999999999997</ele>
        <time>2018-11-04T09:34:26Z</time>
      </trkpt>
      <trkpt lat="51.15854736417532" lon="6.177778970450163">
        <ele>89.310000000000002</ele>
        <time>2018-11-04T09:34:27Z</time>
      </trkpt>
      <trkpt lat="51.158553315326571" lon="6.177753489464521">
        <ele>89.299999999999997</ele>
        <time>2018-11-04T09:34:28Z</time>
      </trkpt>
      <trkpt lat="51.158561697229743" lon="6.177727840840817">
        <ele>89.290000000000006</ele>
        <time>2018-11-04T09:34:29Z</time>
      </trkpt>
      <trkpt lat="51.1586450971663" lon="6.177390804514289">
        <ele>89.180000000000007</ele>
        <time>2018-11-04T09:34:45Z</time>
      </trkpt>
      <trkpt lat="51.158671835437417" lon="6.17708645761013">
        <ele>89.069999999999993</ele>
        <time>2018-11-04T09:35:00Z</time>
      </trkpt>
      <trkpt lat="51.158677032217383" lon="6.177071034908295">
        <ele>89.049999999999997</ele>
        <time>2018-11-04T09:35:01Z</time>
      </trkpt>
      <trkpt lat="51.158684073016047" lon="6.176935248076916">
        <ele>86.719999999999999</ele>
        <time>2018-11-04T09:35:08Z</time>
      </trkpt>
      <trkpt lat="51.158701004460454" lon="6.176870120689273">
        <ele>86.700000000000003</ele>
        <time>2018-11-04T09:35:12Z</time>
      </trkpt>
      <trkpt lat="51.158704189583659" lon="6.176850255578756">
        <ele>86.680000000000007</ele>
        <time>2018-11-04T09:35:13Z</time>
      </trkpt>
      <trkpt lat="51.158720115199685" lon="6.176698375493288">
        <ele>85.709999999999994</ele>
        <time>2018-11-04T09:35:25Z</time>
      </trkpt>
      <trkpt lat="51.158756827935576" lon="6.1767443921417">
        <ele>85.730000000000004</ele>
        <time>2018-11-04T09:35:28Z</time>
      </trkpt>
      <trkpt lat="51.158929746598005" lon="6.176955783739686">
        <ele>85.569999999999993</ele>
        <time>2018-11-04T09:35:42Z</time>
      </trkpt>
      <trkpt lat="51.159075004979968" lon="6.177158541977406">
        <ele>87.650000000000006</ele>
        <time>2018-11-04T09:35:57Z</time>
      </trkpt>
      <trkpt lat="51.15909319370985" lon="6.177179329097271">
        <ele>87.620000000000005</ele>
        <time>2018-11-04T09:35:58Z</time>
      </trkpt>
      <trkpt lat="51.159108197316527" lon="6.177196763455868">
        <ele>87.609999999999999</ele>
        <time>2018-11-04T09:35:59Z</time>
      </trkpt>
      <trkpt lat="51.159232836216688" lon="6.177375046536326">
        <ele>87.430000000000007</ele>
        <time>2018-11-04T09:36:10Z</time>
      </trkpt>
      <trkpt lat="51.159414388239384" lon="6.177604291588068">
        <ele>87.170000000000002</ele>
        <time>2018-11-04T09:36:26Z</time>
      </trkpt>
      <trkpt lat="51.159573225304484" lon="6.177804954349995">
        <ele>86.920000000000002</ele>
        <time>2018-11-04T09:36:41Z</time>
      </trkpt>
      <trkpt lat="51.159649081528187" lon="6.177885755896568">
        <ele>88.069999999999993</ele>
        <time>2018-11-04T09:36:47Z</time>
      </trkpt>
      <trkpt lat="51.159743964672089" lon="6.178036294877529">
        <ele>87.909999999999997</ele>
        <time>2018-11-04T09:36:56Z</time>
      </trkpt>
      <trkpt lat="51.159755112603307" lon="6.178051885217428">
        <ele>87.890000000000001</ele>
        <time>2018-11-04T09:36:57Z</time>
      </trkpt>
      <trkpt lat="51.159819150343537" lon="6.178054651245475">
        <ele>87.790000000000006</ele>
        <time>2018-11-04T09:37:03Z</time>
      </trkpt>
      <trkpt lat="51.159834824502468" lon="6.178036294877529">
        <ele>87.769999999999996</ele>
        <time>2018-11-04T09:37:04Z</time>
      </trkpt>
      <trkpt lat="51.159850247204304" lon="6.178015759214759">
        <ele>87.760000000000005</ele>
        <time>2018-11-04T09:37:05Z</time>
      </trkpt>
      <trkpt lat="51.159865837544203" lon="6.178003270179033">
        <ele>87.75</ele>
        <time>2018-11-04T09:37:06Z</time>
      </trkpt>
      <trkpt lat="51.159884193912148" lon="6.177982818335295">
        <ele>87.739999999999995</ele>
        <time>2018-11-04T09:37:07Z</time>
      </trkpt>
      <trkpt lat="51.159893162548542" lon="6.177968317642808">
        <ele>87.719999999999999</ele>
        <time>2018-11-04T09:37:08Z</time>
      </trkpt>
      <trkpt lat="51.159901209175587" lon="6.177952392026782">
        <ele>87.709999999999994</ele>
        <time>2018-11-04T09:37:09Z</time>
      </trkpt>
      <trkpt lat="51.159909088164568" lon="6.177933448925614">
        <ele>87.700000000000003</ele>
        <time>2018-11-04T09:37:10Z</time>
      </trkpt>
      <trkpt lat="51.160003468394279" lon="6.177655588835478">
        <ele>87.439999999999998</ele>
        <time>2018-11-04T09:37:24Z</time>
      </trkpt>
      <trkpt lat="51.160165658220649" lon="6.177260046824813">
        <ele>87.099999999999994</ele>
        <time>2018-11-04T09:37:44Z</time>
      </trkpt>
      <trkpt lat="51.160254757851362" lon="6.177058713510633">
        <ele>87</ele>
        <time>2018-11-04T09:37:57Z</time>
      </trkpt>
      <trkpt lat="51.160413762554526" lon="6.176724610850215">
        <ele>87.430000000000007</ele>
        <time>2018-11-04T09:38:13Z</time>
      </trkpt>
      <trkpt lat="51.160426000133157" lon="6.176704159006476">
        <ele>87.409999999999997</ele>
        <time>2018-11-04T09:38:14Z</time>
      </trkpt>
      <trkpt lat="51.160604786127806" lon="6.176365781575441">
        <ele>87.219999999999999</ele>
        <time>2018-11-04T09:38:29Z</time>
      </trkpt>
      <trkpt lat="51.160751469433308" lon="6.176010137423873">
        <ele>87.099999999999994</ele>
        <time>2018-11-04T09:38:45Z</time>
      </trkpt>
      <trkpt lat="51.160879796370864" lon="6.175711154937744">
        <ele>86.969999999999999</ele>
        <time>2018-11-04T09:39:01Z</time>
      </trkpt>
      <trkpt lat="51.161007368937135" lon="6.175384847447276">
        <ele>86.890000000000001</ele>
        <time>2018-11-04T09:39:15Z</time>
      </trkpt>
      <trkpt lat="51.161113400012255" lon="6.175161972641945">
        <ele>86.739999999999995</ele>
        <time>2018-11-04T09:39:28Z</time>
      </trkpt>
      <trkpt lat="51.161251114681363" lon="6.174798114225268">
        <ele>86.549999999999997</ele>
        <time>2018-11-04T09:39:45Z</time>
      </trkpt>
      <trkpt lat="51.161346668377519" lon="6.174482116475701">
        <ele>86.299999999999997</ele>
        <time>2018-11-04T09:40:03Z</time>
      </trkpt>
      <trkpt lat="51.161525538191199" lon="6.174177266657352">
        <ele>86.140000000000001</ele>
        <time>2018-11-04T09:40:17Z</time>
      </trkpt>
      <trkpt lat="51.161616481840611" lon="6.173946261405945">
        <ele>85.989999999999995</ele>
        <time>2018-11-04T09:40:30Z</time>
      </trkpt>
      <trkpt lat="51.161712454631925" lon="6.173765128478408">
        <ele>85.890000000000001</ele>
        <time>2018-11-04T09:40:40Z</time>
      </trkpt>
      <trkpt lat="51.161791579797864" lon="6.173846516758204">
        <ele>85.840000000000003</ele>
        <time>2018-11-04T09:40:47Z</time>
      </trkpt>
      <trkpt lat="51.161869280040264" lon="6.174078108742833">
        <ele>85.719999999999999</ele>
        <time>2018-11-04T09:40:59Z</time>
      </trkpt>
      <trkpt lat="51.161975311115384" lon="6.17434130050242">
        <ele>85.609999999999999</ele>
        <time>2018-11-04T09:41:10Z</time>
      </trkpt>
      <trkpt lat="51.162026608362794" lon="6.174451690167189">
        <ele>85.530000000000001</ele>
        <time>2018-11-04T09:41:15Z</time>
      </trkpt>
      <trkpt lat="51.162054939195514" lon="6.174510112032294">
        <ele>85.480000000000004</ele>
        <time>2018-11-04T09:41:17Z</time>
      </trkpt>
      <trkpt lat="51.162064913660288" lon="6.17454313673079">
        <ele>85.450000000000003</ele>
        <time>2018-11-04T09:41:18Z</time>
      </trkpt>
      <trkpt lat="51.162077151238918" lon="6.174564091488719">
        <ele>85.439999999999998</ele>
        <time>2018-11-04T09:41:19Z</time>
      </trkpt>
      <trkpt lat="51.162084862589836" lon="6.17458806373179">
        <ele>85.420000000000002</ele>
        <time>2018-11-04T09:41:20Z</time>
      </trkpt>
      <trkpt lat="51.162096429616213" lon="6.174611449241638">
        <ele>85.409999999999997</ele>
        <time>2018-11-04T09:41:21Z</time>
      </trkpt>
      <trkpt lat="51.162104140967131" lon="6.17463399656117">
        <ele>85.430000000000007</ele>
        <time>2018-11-04T09:41:22Z</time>
      </trkpt>
      <trkpt lat="51.162121323868632" lon="6.174649754539132">
        <ele>85.379999999999995</ele>
        <time>2018-11-04T09:41:23Z</time>
      </trkpt>
      <trkpt lat="51.162139680236578" lon="6.174666099250317">
        <ele>85.370000000000005</ele>
        <time>2018-11-04T09:41:24Z</time>
      </trkpt>
      <trkpt lat="51.162158539518714" lon="6.174698453396559">
        <ele>85.329999999999998</ele>
        <time>2018-11-04T09:41:25Z</time>
      </trkpt>
      <trkpt lat="51.162173626944423" lon="6.174736591055989">
        <ele>85.340000000000003</ele>
        <time>2018-11-04T09:41:26Z</time>
      </trkpt>
      <trkpt lat="51.16218963637948" lon="6.17477816529572">
        <ele>85.319999999999993</ele>
        <time>2018-11-04T09:41:27Z</time>
      </trkpt>
      <trkpt lat="51.162205897271633" lon="6.17482359521091">
        <ele>85.299999999999997</ele>
        <time>2018-11-04T09:41:28Z</time>
      </trkpt>
      <trkpt lat="51.162257613614202" lon="6.174953514710069">
        <ele>85.25</ele>
        <time>2018-11-04T09:41:31Z</time>
      </trkpt>
      <trkpt lat="51.162275550886989" lon="6.174998190253973">
        <ele>85.230000000000004</ele>
        <time>2018-11-04T09:41:32Z</time>
      </trkpt>
      <trkpt lat="51.162295415997505" lon="6.17503909394145">
        <ele>85.200000000000003</ele>
        <time>2018-11-04T09:41:33Z</time>
      </trkpt>
      <trkpt lat="51.162325087934732" lon="6.175087206065655">
        <ele>85.189999999999998</ele>
        <time>2018-11-04T09:41:34Z</time>
      </trkpt>
      <trkpt lat="51.162357106804848" lon="6.175140934064984">
        <ele>85.150000000000006</ele>
        <time>2018-11-04T09:41:35Z</time>
      </trkpt>
      <trkpt lat="51.162376133725047" lon="6.175185861065984">
        <ele>85.150000000000006</ele>
        <time>2018-11-04T09:41:36Z</time>
      </trkpt>
      <trkpt lat="51.162383090704679" lon="6.175232212990522">
        <ele>85.120000000000005</ele>
        <time>2018-11-04T09:41:37Z</time>
      </trkpt>
      <trkpt lat="51.162400273606181" lon="6.17529071867466">
        <ele>85.099999999999994</ele>
        <time>2018-11-04T09:41:38Z</time>
      </trkpt>
      <trkpt lat="51.162414522841573" lon="6.175351487472653">
        <ele>85.079999999999998</ele>
        <time>2018-11-04T09:41:39Z</time>
      </trkpt>
      <trkpt lat="51.162432711571455" lon="6.175393983721733">
        <ele>85.060000000000002</ele>
        <time>2018-11-04T09:41:40Z</time>
      </trkpt>
      <trkpt lat="51.162460707128048" lon="6.175437234342098">
        <ele>85.030000000000001</ele>
        <time>2018-11-04T09:41:41Z</time>
      </trkpt>
      <trkpt lat="51.162488032132387" lon="6.175505546852946">
        <ele>85.010000000000005</ele>
        <time>2018-11-04T09:41:42Z</time>
      </trkpt>
      <trkpt lat="51.162504628300667" lon="6.175593053922057">
        <ele>84.989999999999995</ele>
        <time>2018-11-04T09:41:43Z</time>
      </trkpt>
      <trkpt lat="51.162533294409513" lon="6.175662623718381">
        <ele>84.959999999999994</ele>
        <time>2018-11-04T09:41:44Z</time>
      </trkpt>
      <trkpt lat="51.16255902685225" lon="6.1757324449718">
        <ele>84.930000000000007</ele>
        <time>2018-11-04T09:41:45Z</time>
      </trkpt>
      <trkpt lat="51.162578724324703" lon="6.175793968141079">
        <ele>84.909999999999997</ele>
        <time>2018-11-04T09:41:46Z</time>
      </trkpt>
      <trkpt lat="51.162631949409842" lon="6.175926988944411">
        <ele>84.859999999999999</ele>
        <time>2018-11-04T09:41:48Z</time>
      </trkpt>
      <trkpt lat="51.16265675984323" lon="6.175988260656595">
        <ele>84.829999999999998</ele>
        <time>2018-11-04T09:41:49Z</time>
      </trkpt>
      <trkpt lat="51.162693304941058" lon="6.176047520712018">
        <ele>84.780000000000001</ele>
        <time>2018-11-04T09:41:50Z</time>
      </trkpt>
      <trkpt lat="51.162721216678619" lon="6.17610527202487">
        <ele>84.769999999999996</ele>
        <time>2018-11-04T09:41:51Z</time>
      </trkpt>
      <trkpt lat="51.162752648815513" lon="6.176153048872948">
        <ele>84.730000000000004</ele>
        <time>2018-11-04T09:41:52Z</time>
      </trkpt>
      <trkpt lat="51.162779051810503" lon="6.176204178482294">
        <ele>84.680000000000007</ele>
        <time>2018-11-04T09:41:53Z</time>
      </trkpt>
      <trkpt lat="51.16281408816576" lon="6.176280034705997">
        <ele>84.640000000000001</ele>
        <time>2018-11-04T09:41:54Z</time>
      </trkpt>
      <trkpt lat="51.162843341007829" lon="6.176340049132705">
        <ele>84.590000000000003</ele>
        <time>2018-11-04T09:41:55Z</time>
      </trkpt>
      <trkpt lat="51.163041824474931" lon="6.176825612783432">
        <ele>84.379999999999995</ele>
        <time>2018-11-04T09:42:02Z</time>
      </trkpt>
      <trkpt lat="51.163071915507317" lon="6.176892500370741">
        <ele>84.359999999999999</ele>
        <time>2018-11-04T09:42:03Z</time>
      </trkpt>
      <trkpt lat="51.163107622414827" lon="6.176971457898617">
        <ele>84.319999999999993</ele>
        <time>2018-11-04T09:42:04Z</time>
      </trkpt>
      <trkpt lat="51.163144167512655" lon="6.177057707682252">
        <ele>84.299999999999997</ele>
        <time>2018-11-04T09:42:05Z</time>
      </trkpt>
      <trkpt lat="51.163180628791451" lon="6.1771260201931">
        <ele>84.269999999999996</ele>
        <time>2018-11-04T09:42:06Z</time>
      </trkpt>
      <trkpt lat="51.163216670975089" lon="6.17718561552465">
        <ele>84.329999999999998</ele>
        <time>2018-11-04T09:42:07Z</time>
      </trkpt>
      <trkpt lat="51.163299148902297" lon="6.177316540852189">
        <ele>84.269999999999996</ele>
        <time>2018-11-04T09:42:09Z</time>
      </trkpt>
      <trkpt lat="51.163708521053195" lon="6.177967395633459">
        <ele>84.030000000000001</ele>
        <time>2018-11-04T09:42:19Z</time>
      </trkpt>
      <trkpt lat="51.163788568228483" lon="6.178079713135958">
        <ele>83.980000000000004</ele>
        <time>2018-11-04T09:42:21Z</time>
      </trkpt>
      <trkpt lat="51.163822263479233" lon="6.178144253790379">
        <ele>83.959999999999994</ele>
        <time>2018-11-04T09:42:22Z</time>
      </trkpt>
      <trkpt lat="51.163856880739331" lon="6.178208459168673">
        <ele>83.939999999999998</ele>
        <time>2018-11-04T09:42:23Z</time>
      </trkpt>
      <trkpt lat="51.163893258199096" lon="6.178288254886866">
        <ele>83.920000000000002</ele>
        <time>2018-11-04T09:42:24Z</time>
      </trkpt>
      <trkpt lat="51.163927121087909" lon="6.178365871310234">
        <ele>83.909999999999997</ele>
        <time>2018-11-04T09:42:25Z</time>
      </trkpt>
      <trkpt lat="51.163976825773716" lon="6.178513811901212">
        <ele>83.870000000000005</ele>
        <time>2018-11-04T09:42:27Z</time>
      </trkpt>
      <trkpt lat="51.16400146856904" lon="6.178585225716233">
        <ele>83.859999999999999</ele>
        <time>2018-11-04T09:42:28Z</time>
      </trkpt>
      <trkpt lat="51.164029380306602" lon="6.178647922351956">
        <ele>83.840000000000003</ele>
        <time>2018-11-04T09:42:29Z</time>
      </trkpt>
      <trkpt lat="51.1641157977283" lon="6.178874485194683">
        <ele>81.480000000000004</ele>
        <time>2018-11-04T09:42:32Z</time>
      </trkpt>
      <trkpt lat="51.164140021428466" lon="6.178945815190673">
        <ele>81.459999999999994</ele>
        <time>2018-11-04T09:42:33Z</time>
      </trkpt>
      <trkpt lat="51.164203053340316" lon="6.179100880399346">
        <ele>81.420000000000002</ele>
        <time>2018-11-04T09:42:35Z</time>
      </trkpt>
      <trkpt lat="51.164236413314939" lon="6.179181514307857">
        <ele>81.409999999999997</ele>
        <time>2018-11-04T09:42:36Z</time>
      </trkpt>
      <trkpt lat="51.164340013638139" lon="6.179443281143904">
        <ele>81.349999999999994</ele>
        <time>2018-11-04T09:42:39Z</time>
      </trkpt>
      <trkpt lat="51.164377480745316" lon="6.179532883688808">
        <ele>81.349999999999994</ele>
        <time>2018-11-04T09:42:40Z</time>
      </trkpt>
      <trkpt lat="51.164417462423444" lon="6.17961410433054">
        <ele>81.329999999999998</ele>
        <time>2018-11-04T09:42:41Z</time>
      </trkpt>
      <trkpt lat="51.164453169330955" lon="6.179691050201654">
        <ele>80.349999999999994</ele>
        <time>2018-11-04T09:42:42Z</time>
      </trkpt>
      <trkpt lat="51.164489211514592" lon="6.17976849898696">
        <ele>80.349999999999994</ele>
        <time>2018-11-04T09:42:43Z</time>
      </trkpt>
      <trkpt lat="51.16452282294631" lon="6.179847707971931">
        <ele>80.319999999999993</ele>
        <time>2018-11-04T09:42:44Z</time>
      </trkpt>
      <trkpt lat="51.164599098265171" lon="6.179994391277432">
        <ele>80.299999999999997</ele>
        <time>2018-11-04T09:42:46Z</time>
      </trkpt>
      <trkpt lat="51.164633631706238" lon="6.180066559463739">
        <ele>80.319999999999993</ele>
        <time>2018-11-04T09:42:47Z</time>
      </trkpt>
      <trkpt lat="51.164670512080193" lon="6.18014425970614">
        <ele>80.310000000000002</ele>
        <time>2018-11-04T09:42:48Z</time>
      </trkpt>
      <trkpt lat="51.164706470444798" lon="6.180213242769241">
        <ele>80.269999999999996</ele>
        <time>2018-11-04T09:42:49Z</time>
      </trkpt>
      <trkpt lat="51.164741925895214" lon="6.180277783423662">
        <ele>80.269999999999996</ele>
        <time>2018-11-04T09:42:50Z</time>
      </trkpt>
      <trkpt lat="51.164772771298885" lon="6.180348359048367">
        <ele>80.260000000000005</ele>
        <time>2018-11-04T09:42:51Z</time>
      </trkpt>
      <trkpt lat="51.164798000827432" lon="6.180420611053705">
        <ele>80.25</ele>
        <time>2018-11-04T09:42:52Z</time>
      </trkpt>
      <trkpt lat="51.164838988333941" lon="6.180478781461716">
        <ele>80.239999999999995</ele>
        <time>2018-11-04T09:42:53Z</time>
      </trkpt>
      <trkpt lat="51.164881400763988" lon="6.180536532774568">
        <ele>80.239999999999995</ele>
        <time>2018-11-04T09:42:54Z</time>
      </trkpt>
      <trkpt lat="51.16491568274796" lon="6.180608784779906">
        <ele>80.239999999999995</ele>
        <time>2018-11-04T09:42:55Z</time>
      </trkpt>
      <trkpt lat="51.164945103228092" lon="6.18068665266037">
        <ele>80.219999999999999</ele>
        <time>2018-11-04T09:42:56Z</time>
      </trkpt>
      <trkpt lat="51.164972595870495" lon="6.180757395923138">
        <ele>80.219999999999999</ele>
        <time>2018-11-04T09:42:57Z</time>
      </trkpt>
      <trkpt lat="51.165007883682847" lon="6.180813889950514">
        <ele>80.200000000000003</ele>
        <time>2018-11-04T09:42:58Z</time>
      </trkpt>
      <trkpt lat="51.165049960836768" lon="6.180872563272715">
        <ele>80.200000000000003</ele>
        <time>2018-11-04T09:42:59Z</time>
      </trkpt>
      <trkpt lat="51.165181556716561" lon="6.181102730333805">
        <ele>82.459999999999994</ele>
        <time>2018-11-04T09:43:03Z</time>
      </trkpt>
      <trkpt lat="51.165213827043772" lon="6.181162409484386">
        <ele>82.439999999999998</ele>
        <time>2018-11-04T09:43:04Z</time>
      </trkpt>
      <trkpt lat="51.16524743847549" lon="6.181223932653666">
        <ele>82.430000000000007</ele>
        <time>2018-11-04T09:43:05Z</time>
      </trkpt>
      <trkpt lat="51.165354726836085" lon="6.181474383920431">
        <ele>82.390000000000001</ele>
        <time>2018-11-04T09:43:09Z</time>
      </trkpt>
      <trkpt lat="51.165390098467469" lon="6.181538673117757">
        <ele>82.370000000000005</ele>
        <time>2018-11-04T09:43:10Z</time>
      </trkpt>
      <trkpt lat="51.165426475927234" lon="6.181608997285366">
        <ele>82.370000000000005</ele>
        <time>2018-11-04T09:43:11Z</time>
      </trkpt>
      <trkpt lat="51.165465619415045" lon="6.181674627587199">
        <ele>82.359999999999999</ele>
        <time>2018-11-04T09:43:12Z</time>
      </trkpt>
      <trkpt lat="51.165502248331904" lon="6.181736988946796">
        <ele>82.349999999999994</ele>
        <time>2018-11-04T09:43:13Z</time>
      </trkpt>
      <trkpt lat="51.165541978552938" lon="6.181799182668328">
        <ele>82.349999999999994</ele>
        <time>2018-11-04T09:43:14Z</time>
      </trkpt>
      <trkpt lat="51.165579194203019" lon="6.181853581219912">
        <ele>82.340000000000003</ele>
        <time>2018-11-04T09:43:15Z</time>
      </trkpt>
      <trkpt lat="51.165650021284819" lon="6.181971095502377">
        <ele>82.329999999999998</ele>
        <time>2018-11-04T09:43:17Z</time>
      </trkpt>
      <trkpt lat="51.165679441764951" lon="6.182024572044611">
        <ele>82.310000000000002</ele>
        <time>2018-11-04T09:43:18Z</time>
      </trkpt>
      <trkpt lat="51.165712215006351" lon="6.18209196254611">
        <ele>82.299999999999997</ele>
        <time>2018-11-04T09:43:19Z</time>
      </trkpt>
      <trkpt lat="51.165736857801676" lon="6.182180140167475">
        <ele>82.299999999999997</ele>
        <time>2018-11-04T09:43:20Z</time>
      </trkpt>
      <trkpt lat="51.165766278281808" lon="6.182252643629909">
        <ele>82.260000000000005</ele>
        <time>2018-11-04T09:43:21Z</time>
      </trkpt>
      <trkpt lat="51.165801398456097" lon="6.182318525388837">
        <ele>82.25</ele>
        <time>2018-11-04T09:43:22Z</time>
      </trkpt>
      <trkpt lat="51.16582939401269" lon="6.182384742423892">
        <ele>82.25</ele>
        <time>2018-11-04T09:43:23Z</time>
      </trkpt>
      <trkpt lat="51.165865771472454" lon="6.182445846498013">
        <ele>82.209999999999994</ele>
        <time>2018-11-04T09:43:24Z</time>
      </trkpt>
      <trkpt lat="51.165892677381635" lon="6.182505777105689">
        <ele>82.180000000000007</ele>
        <time>2018-11-04T09:43:25Z</time>
      </trkpt>
      <trkpt lat="51.165918493643403" lon="6.18256151676178">
        <ele>82.170000000000002</ele>
        <time>2018-11-04T09:43:26Z</time>
      </trkpt>
      <trkpt lat="51.165935676544905" lon="6.18260795250535">
        <ele>82.180000000000007</ele>
        <time>2018-11-04T09:43:27Z</time>
      </trkpt>
      <trkpt lat="51.16595252417028" lon="6.182653801515698">
        <ele>82.150000000000006</ele>
        <time>2018-11-04T09:43:28Z</time>
      </trkpt>
      <trkpt lat="51.165970377624035" lon="6.182696549221873">
        <ele>82.150000000000006</ele>
        <time>2018-11-04T09:43:29Z</time>
      </trkpt>
      <trkpt lat="51.166102141141891" lon="6.183042051270604">
        <ele>82.030000000000001</ele>
        <time>2018-11-04T09:43:40Z</time>
      </trkpt>
      <trkpt lat="51.166225103661418" lon="6.183340027928352">
        <ele>81.780000000000001</ele>
        <time>2018-11-04T09:43:54Z</time>
      </trkpt>
      <trkpt lat="51.166239855811" lon="6.183357629925013">
        <ele>81.769999999999996</ele>
        <time>2018-11-04T09:43:55Z</time>
      </trkpt>
      <trkpt lat="51.166268605738878" lon="6.183386379852891">
        <ele>81.730000000000004</ele>
        <time>2018-11-04T09:43:57Z</time>
      </trkpt>
      <trkpt lat="51.166277071461082" lon="6.183407921344042">
        <ele>81.719999999999999</ele>
        <time>2018-11-04T09:43:58Z</time>
      </trkpt>
      <trkpt lat="51.166302636265755" lon="6.183433653786779">
        <ele>81.670000000000002</ele>
        <time>2018-11-04T09:44:00Z</time>
      </trkpt>
      <trkpt lat="51.166317723691463" lon="6.183448573574424">
        <ele>81.650000000000006</ele>
        <time>2018-11-04T09:44:01Z</time>
      </trkpt>
      <trkpt lat="51.166328620165586" lon="6.183467181399465">
        <ele>81.620000000000005</ele>
        <time>2018-11-04T09:44:02Z</time>
      </trkpt>
      <trkpt lat="51.166346725076437" lon="6.183498529717326">
        <ele>81.599999999999994</ele>
        <time>2018-11-04T09:44:04Z</time>
      </trkpt>
      <trkpt lat="51.16635711863637" lon="6.183515880256891">
        <ele>81.579999999999998</ele>
        <time>2018-11-04T09:44:05Z</time>
      </trkpt>
      <trkpt lat="51.166369942948222" lon="6.183536918833852">
        <ele>81.569999999999993</ele>
        <time>2018-11-04T09:44:06Z</time>
      </trkpt>
      <trkpt lat="51.166382599622011" lon="6.183555275201798">
        <ele>81.549999999999997</ele>
        <time>2018-11-04T09:44:07Z</time>
      </trkpt>
      <trkpt lat="51.166392993181944" lon="6.183572877198458">
        <ele>81.530000000000001</ele>
        <time>2018-11-04T09:44:08Z</time>
      </trkpt>
      <trkpt lat="51.166492151096463" lon="6.183805223554373">
        <ele>81.340000000000003</ele>
        <time>2018-11-04T09:44:19Z</time>
      </trkpt>
      <trkpt lat="51.166501538828015" lon="6.183837661519647">
        <ele>81.319999999999993</ele>
        <time>2018-11-04T09:44:20Z</time>
      </trkpt>
      <trkpt lat="51.166514530777931" lon="6.183863896876574">
        <ele>81.319999999999993</ele>
        <time>2018-11-04T09:44:21Z</time>
      </trkpt>
      <trkpt lat="51.166534395888448" lon="6.183883845806122">
        <ele>81.299999999999997</ele>
        <time>2018-11-04T09:44:22Z</time>
      </trkpt>
      <trkpt lat="51.166545962914824" lon="6.183909494429827">
        <ele>81.280000000000001</ele>
        <time>2018-11-04T09:44:23Z</time>
      </trkpt>
      <trkpt lat="51.166558703407645" lon="6.183928018435836">
        <ele>81.290000000000006</ele>
        <time>2018-11-04T09:44:24Z</time>
      </trkpt>
      <trkpt lat="51.1666473839432" lon="6.184069588780403">
        <ele>81.170000000000002</ele>
        <time>2018-11-04T09:44:33Z</time>
      </trkpt>
      <trkpt lat="51.166656101122499" lon="6.184093141928315">
        <ele>81.150000000000006</ele>
        <time>2018-11-04T09:44:34Z</time>
      </trkpt>
      <trkpt lat="51.166760455816984" lon="6.184301432222128">
        <ele>80.969999999999999</ele>
        <time>2018-11-04T09:44:47Z</time>
      </trkpt>
      <trkpt lat="51.166863888502121" lon="6.184551632031798">
        <ele>80.739999999999995</ele>
        <time>2018-11-04T09:45:01Z</time>
      </trkpt>
      <trkpt lat="51.167006297037005" lon="6.184800155460835">
        <ele>78.040000000000006</ele>
        <time>2018-11-04T09:45:15Z</time>
      </trkpt>
      <trkpt lat="51.167077627032995" lon="6.184889925643802">
        <ele>80.310000000000002</ele>
        <time>2018-11-04T09:45:22Z</time>
      </trkpt>
      <trkpt lat="51.167250545695424" lon="6.185016995295882">
        <ele>80.060000000000002</ele>
        <time>2018-11-04T09:45:36Z</time>
      </trkpt>
      <trkpt lat="51.167277451604605" lon="6.185014145448804">
        <ele>80.049999999999997</ele>
        <time>2018-11-04T09:45:38Z</time>
      </trkpt>
      <trkpt lat="51.167505607008934" lon="6.184987826272845">
        <ele>79.879999999999995</ele>
        <time>2018-11-04T09:45:53Z</time>
      </trkpt>
      <trkpt lat="51.167726889252663" lon="6.18511414155364">
        <ele>79.719999999999999</ele>
        <time>2018-11-04T09:46:09Z</time>
      </trkpt>
      <trkpt lat="51.168018244206905" lon="6.185211874544621">
        <ele>79.480000000000004</ele>
        <time>2018-11-04T09:46:28Z</time>
      </trkpt>
      <trkpt lat="51.168151265010238" lon="6.18527733720839">
        <ele>79.329999999999998</ele>
        <time>2018-11-04T09:46:39Z</time>
      </trkpt>
      <trkpt lat="51.168199460953474" lon="6.18532226420939">
        <ele>79.25</ele>
        <time>2018-11-04T09:46:44Z</time>
      </trkpt>
      <trkpt lat="51.168454270809889" lon="6.185159739106894">
        <ele>79.109999999999999</ele>
        <time>2018-11-04T09:46:57Z</time>
      </trkpt>
      <trkpt lat="51.168604055419564" lon="6.184905096888542">
        <ele>79.840000000000003</ele>
        <time>2018-11-04T09:47:15Z</time>
      </trkpt>
      <trkpt lat="51.168698938563466" lon="6.184698566794395">
        <ele>79.75</ele>
        <time>2018-11-04T09:47:25Z</time>
      </trkpt>
      <trkpt lat="51.168792145326734" lon="6.184450881555677">
        <ele>79.640000000000001</ele>
        <time>2018-11-04T09:47:37Z</time>
      </trkpt>
      <trkpt lat="51.168798012658954" lon="6.184429340064526">
        <ele>79.629999999999995</ele>
        <time>2018-11-04T09:47:38Z</time>
      </trkpt>
      <trkpt lat="51.168806059285998" lon="6.184395812451839">
        <ele>79.599999999999994</ele>
        <time>2018-11-04T09:47:40Z</time>
      </trkpt>
      <trkpt lat="51.168961459770799" lon="6.184108061715961">
        <ele>79.599999999999994</ele>
        <time>2018-11-04T09:47:56Z</time>
      </trkpt>
      <trkpt lat="51.169070089235902" lon="6.183874877169728">
        <ele>79.430000000000007</ele>
        <time>2018-11-04T09:48:09Z</time>
      </trkpt>
      <trkpt lat="51.169215096160769" lon="6.183576984331012">
        <ele>80.129999999999995</ele>
        <time>2018-11-04T09:48:25Z</time>
      </trkpt>
      <trkpt lat="51.169350212439895" lon="6.18332083337009">
        <ele>79.950000000000003</ele>
        <time>2018-11-04T09:48:38Z</time>
      </trkpt>
      <trkpt lat="51.169458841904998" lon="6.183007853105664">
        <ele>79.829999999999998</ele>
        <time>2018-11-04T09:48:52Z</time>
      </trkpt>
      <trkpt lat="51.169494884088635" lon="6.182936523109675">
        <ele>79.769999999999996</ele>
        <time>2018-11-04T09:48:57Z</time>
      </trkpt>
      <trkpt lat="51.169616673141718" lon="6.182662267237902">
        <ele>79.609999999999999</ele>
        <time>2018-11-04T09:49:12Z</time>
      </trkpt>
      <trkpt lat="51.169772325083613" lon="6.182438805699348">
        <ele>77.200000000000003</ele>
        <time>2018-11-04T09:49:25Z</time>
      </trkpt>
      <trkpt lat="51.169786155223846" lon="6.18242765776813">
        <ele>77.200000000000003</ele>
        <time>2018-11-04T09:49:26Z</time>
      </trkpt>
      <trkpt lat="51.169910961762071" lon="6.182104870676994">
        <ele>76.159999999999997</ele>
        <time>2018-11-04T09:49:39Z</time>
      </trkpt>
      <trkpt lat="51.16996661759913" lon="6.181986853480339">
        <ele>76.140000000000001</ele>
        <time>2018-11-04T09:49:44Z</time>
      </trkpt>
      <trkpt lat="51.169984638690948" lon="6.181892305612564">
        <ele>76.109999999999999</ele>
        <time>2018-11-04T09:49:48Z</time>
      </trkpt>
      <trkpt lat="51.170009952038527" lon="6.181813264265657">
        <ele>76.079999999999998</ele>
        <time>2018-11-04T09:49:51Z</time>
      </trkpt>
      <trkpt lat="51.170146912336349" lon="6.18156960234046">
        <ele>75.959999999999994</ele>
        <time>2018-11-04T09:50:03Z</time>
      </trkpt>
      <trkpt lat="51.170236682519317" lon="6.181378327310085">
        <ele>75.920000000000002</ele>
        <time>2018-11-04T09:50:16Z</time>
      </trkpt>
      <trkpt lat="51.17026224732399" lon="6.181338261812925">
        <ele>78.159999999999997</ele>
        <time>2018-11-04T09:50:19Z</time>
      </trkpt>
      <trkpt lat="51.170417312532663" lon="6.180995441973209">
        <ele>78.769999999999996</ele>
        <time>2018-11-04T09:50:37Z</time>
      </trkpt>
      <trkpt lat="51.170535581186414" lon="6.180725796148181">
        <ele>78.579999999999998</ele>
        <time>2018-11-04T09:50:51Z</time>
      </trkpt>
      <trkpt lat="51.170646557584405" lon="6.180549943819642">
        <ele>76.170000000000002</ele>
        <time>2018-11-04T09:51:00Z</time>
      </trkpt>
      <trkpt lat="51.170717468485236" lon="6.18046386167407">
        <ele>76.150000000000006</ele>
        <time>2018-11-04T09:51:06Z</time>
      </trkpt>
      <trkpt lat="51.17079927586019" lon="6.180366212502122">
        <ele>76.129999999999995</ele>
        <time>2018-11-04T09:51:13Z</time>
      </trkpt>
      <trkpt lat="51.170761389657855" lon="6.180305276066065">
        <ele>75.239999999999995</ele>
        <time>2018-11-04T09:51:18Z</time>
      </trkpt>
      <trkpt lat="51.170744290575385" lon="6.180300833657384">
        <ele>75.209999999999994</ele>
        <time>2018-11-04T09:51:20Z</time>
      </trkpt>
      <trkpt lat="51.170750493183732" lon="6.180224809795618">
        <ele>75.040000000000006</ele>
        <time>2018-11-04T09:51:38Z</time>
      </trkpt>
      <trkpt lat="51.170773794874549" lon="6.180226150900126">
        <ele>77.579999999999998</ele>
        <time>2018-11-04T09:52:00Z</time>
      </trkpt>
      <trkpt lat="51.170800449326634" lon="6.180173764005303">
        <ele>74.939999999999998</ele>
        <time>2018-11-04T09:52:05Z</time>
      </trkpt>
      <trkpt lat="51.170809585601091" lon="6.180166136473417">
        <ele>74.930000000000007</ele>
        <time>2018-11-04T09:52:06Z</time>
      </trkpt>
      <trkpt lat="51.17085887119174" lon="6.180044682696462">
        <ele>74.810000000000002</ele>
        <time>2018-11-04T09:52:15Z</time>
      </trkpt>
      <trkpt lat="51.170983426272869" lon="6.179871428757906">
        <ele>74.819999999999993</ele>
        <time>2018-11-04T09:52:26Z</time>
      </trkpt>
      <trkpt lat="51.171084512025118" lon="6.179633466526866">
        <ele>74.829999999999998</ele>
        <time>2018-11-04T09:52:39Z</time>
      </trkpt>
      <trkpt lat="51.171186352148652" lon="6.179334567859769">
        <ele>74.780000000000001</ele>
        <time>2018-11-04T09:52:54Z</time>
      </trkpt>
      <trkpt lat="51.171254413202405" lon="6.179216550663114">
        <ele>74.730000000000004</ele>
        <time>2018-11-04T09:53:00Z</time>
      </trkpt>
      <trkpt lat="51.171276457607746" lon="6.179183190688491">
        <ele>74.719999999999999</ele>
        <time>2018-11-04T09:53:02Z</time>
      </trkpt>
      <trkpt lat="51.171447699889541" lon="6.178851015865803">
        <ele>74.640000000000001</ele>
        <time>2018-11-04T09:53:21Z</time>
      </trkpt>
      <trkpt lat="51.171468403190374" lon="6.178789995610714">
        <ele>74.629999999999995</ele>
        <time>2018-11-04T09:53:24Z</time>
      </trkpt>
      <trkpt lat="51.171584408730268" lon="6.178606599569321">
        <ele>74.549999999999997</ele>
        <time>2018-11-04T09:53:36Z</time>
      </trkpt>
      <trkpt lat="51.171630090102553" lon="6.178541220724583">
        <ele>74.5</ele>
        <time>2018-11-04T09:53:40Z</time>
      </trkpt>
      <trkpt lat="51.171772833913565" lon="6.178118186071515">
        <ele>74.349999999999994</ele>
        <time>2018-11-04T09:53:58Z</time>
      </trkpt>
      <trkpt lat="51.171890096738935" lon="6.177890785038471">
        <ele>74.25</ele>
        <time>2018-11-04T09:54:11Z</time>
      </trkpt>
      <trkpt lat="51.172054633498192" lon="6.177652236074209">
        <ele>74.120000000000005</ele>
        <time>2018-11-04T09:54:26Z</time>
      </trkpt>
      <trkpt lat="51.172157730907202" lon="6.177359623834491">
        <ele>73.969999999999999</ele>
        <time>2018-11-04T09:54:40Z</time>
      </trkpt>
      <trkpt lat="51.172234592959285" lon="6.177230877801776">
        <ele>73.909999999999997</ele>
        <time>2018-11-04T09:54:49Z</time>
      </trkpt>
      <trkpt lat="51.172337271273136" lon="6.177264656871557">
        <ele>73.829999999999998</ele>
        <time>2018-11-04T09:54:58Z</time>
      </trkpt>
      <trkpt lat="51.172430142760277" lon="6.177505385130644">
        <ele>73.620000000000005</ele>
        <time>2018-11-04T09:55:11Z</time>
      </trkpt>
      <trkpt lat="51.172463586553931" lon="6.177784753963351">
        <ele>73.480000000000004</ele>
        <time>2018-11-04T09:55:25Z</time>
      </trkpt>
      <trkpt lat="51.172592248767614" lon="6.178096812218428">
        <ele>73.200000000000003</ele>
        <time>2018-11-04T09:55:40Z</time>
      </trkpt>
      <trkpt lat="51.172673301771283" lon="6.178324380889535">
        <ele>72.909999999999997</ele>
        <time>2018-11-04T09:55:52Z</time>
      </trkpt>
      <trkpt lat="51.172691071406007" lon="6.178426556289196">
        <ele>72.829999999999998</ele>
        <time>2018-11-04T09:55:56Z</time>
      </trkpt>
      <trkpt lat="51.172699872404337" lon="6.178455473855138">
        <ele>72.790000000000006</ele>
        <time>2018-11-04T09:55:57Z</time>
      </trkpt>
      <trkpt lat="51.172711942344904" lon="6.178475338965654">
        <ele>72.760000000000005</ele>
        <time>2018-11-04T09:55:58Z</time>
      </trkpt>
      <trkpt lat="51.172727616503835" lon="6.17850442416966">
        <ele>72.730000000000004</ele>
        <time>2018-11-04T09:55:59Z</time>
      </trkpt>
      <trkpt lat="51.172751924023032" lon="6.178570054471493">
        <ele>72.75</ele>
        <time>2018-11-04T09:56:01Z</time>
      </trkpt>
      <trkpt lat="51.172767262905836" lon="6.178603330627084">
        <ele>72.730000000000004</ele>
        <time>2018-11-04T09:56:02Z</time>
      </trkpt>
      <trkpt lat="51.172784445807338" lon="6.178636606782675">
        <ele>72.680000000000007</ele>
        <time>2018-11-04T09:56:03Z</time>
      </trkpt>
      <trkpt lat="51.172798527404666" lon="6.178676001727581">
        <ele>72.659999999999997</ele>
        <time>2018-11-04T09:56:04Z</time>
      </trkpt>
      <trkpt lat="51.172809423878789" lon="6.178717240691185">
        <ele>72.650000000000006</ele>
        <time>2018-11-04T09:56:05Z</time>
      </trkpt>
      <trkpt lat="51.172817638143897" lon="6.178761916235089">
        <ele>72.629999999999995</ele>
        <time>2018-11-04T09:56:06Z</time>
      </trkpt>
      <trkpt lat="51.172829875722528" lon="6.178807429969311">
        <ele>72.599999999999994</ele>
        <time>2018-11-04T09:56:07Z</time>
      </trkpt>
      <trkpt lat="51.172838928177953" lon="6.178843807429075">
        <ele>72.569999999999993</ele>
        <time>2018-11-04T09:56:08Z</time>
      </trkpt>
      <trkpt lat="51.172849992290139" lon="6.178895942866802">
        <ele>72.540000000000006</ele>
        <time>2018-11-04T09:56:09Z</time>
      </trkpt>
      <trkpt lat="51.172857200726867" lon="6.178942881524563">
        <ele>72.519999999999996</ele>
        <time>2018-11-04T09:56:10Z</time>
      </trkpt>
      <trkpt lat="51.172868432477117" lon="6.178976576775312">
        <ele>72.480000000000004</ele>
        <time>2018-11-04T09:56:11Z</time>
      </trkpt>
      <trkpt lat="51.172882933169603" lon="6.179001471027732">
        <ele>72.450000000000003</ele>
        <time>2018-11-04T09:56:12Z</time>
      </trkpt>
      <trkpt lat="51.172892656177282" lon="6.179041285067797">
        <ele>72.420000000000002</ele>
        <time>2018-11-04T09:56:13Z</time>
      </trkpt>
      <trkpt lat="51.172905899584293" lon="6.179075231775641">
        <ele>72.390000000000001</ele>
        <time>2018-11-04T09:56:14Z</time>
      </trkpt>
      <trkpt lat="51.172979073598981" lon="6.17943431250751">
        <ele>72.109999999999999</ele>
        <time>2018-11-04T09:56:22Z</time>
      </trkpt>
      <trkpt lat="51.172979911789298" lon="6.179490890353918">
        <ele>72.069999999999993</ele>
        <time>2018-11-04T09:56:23Z</time>
      </trkpt>
      <trkpt lat="51.173093905672431" lon="6.179858604446054">
        <ele>71.700000000000003</ele>
        <time>2018-11-04T09:56:32Z</time>
      </trkpt>
      <trkpt lat="51.173156686127186" lon="6.18004459887743">
        <ele>71.530000000000001</ele>
        <time>2018-11-04T09:56:36Z</time>
      </trkpt>
      <trkpt lat="51.173153584823012" lon="6.180118191987276">
        <ele>71.480000000000004</ele>
        <time>2018-11-04T09:56:37Z</time>
      </trkpt>
      <trkpt lat="51.173171857371926" lon="6.180172087624669">
        <ele>71.439999999999998</ele>
        <time>2018-11-04T09:56:38Z</time>
      </trkpt>
      <trkpt lat="51.173184430226684" lon="6.180222630500794">
        <ele>71.409999999999997</ele>
        <time>2018-11-04T09:56:39Z</time>
      </trkpt>
      <trkpt lat="51.173193734139204" lon="6.180271496996284">
        <ele>71.379999999999995</ele>
        <time>2018-11-04T09:56:40Z</time>
      </trkpt>
      <trkpt lat="51.173200942575932" lon="6.180311311036348">
        <ele>71.340000000000003</ele>
        <time>2018-11-04T09:56:41Z</time>
      </trkpt>
      <trkpt lat="51.173219718039036" lon="6.18034802377224">
        <ele>71.290000000000006</ele>
        <time>2018-11-04T09:56:42Z</time>
      </trkpt>
      <trkpt lat="51.173235392197967" lon="6.180393453687429">
        <ele>73.480000000000004</ele>
        <time>2018-11-04T09:56:43Z</time>
      </trkpt>
      <trkpt lat="51.173253748565912" lon="6.180435949936509">
        <ele>73.439999999999998</ele>
        <time>2018-11-04T09:56:44Z</time>
      </trkpt>
      <trkpt lat="51.173372520133853" lon="6.180828977376223">
        <ele>73.049999999999997</ele>
        <time>2018-11-04T09:56:53Z</time>
      </trkpt>
      <trkpt lat="51.173454327508807" lon="6.181007092818618">
        <ele>72.870000000000005</ele>
        <time>2018-11-04T09:56:57Z</time>
      </trkpt>
      <trkpt lat="51.173470420762897" lon="6.181061072275043">
        <ele>72.810000000000002</ele>
        <time>2018-11-04T09:56:58Z</time>
      </trkpt>
      <trkpt lat="51.173483831807971" lon="6.181107508018613">
        <ele>72.769999999999996</ele>
        <time>2018-11-04T09:56:59Z</time>
      </trkpt>
      <trkpt lat="51.173674436286092" lon="6.181579744443297">
        <ele>72.319999999999993</ele>
        <time>2018-11-04T09:57:08Z</time>
      </trkpt>
      <trkpt lat="51.173694720491767" lon="6.181616457179189">
        <ele>72.290000000000006</ele>
        <time>2018-11-04T09:57:09Z</time>
      </trkpt>
      <trkpt lat="51.173715004697442" lon="6.181654008105397">
        <ele>72.25</ele>
        <time>2018-11-04T09:57:10Z</time>
      </trkpt>
      <trkpt lat="51.173724560067058" lon="6.181704718619585">
        <ele>72.209999999999994</ele>
        <time>2018-11-04T09:57:11Z</time>
      </trkpt>
      <trkpt lat="51.173743167892098" lon="6.181748723611236">
        <ele>72.180000000000007</ele>
        <time>2018-11-04T09:57:12Z</time>
      </trkpt>
      <trkpt lat="51.173956990242004" lon="6.182335624471307">
        <ele>71.790000000000006</ele>
        <time>2018-11-04T09:57:24Z</time>
      </trkpt>
      <trkpt lat="51.174126639962196" lon="6.182784559205174">
        <ele>71.349999999999994</ele>
        <time>2018-11-04T09:57:34Z</time>
      </trkpt>
      <trkpt lat="51.174240885302424" lon="6.183048170059919">
        <ele>68.590000000000003</ele>
        <time>2018-11-04T09:57:40Z</time>
      </trkpt>
      <trkpt lat="51.17443073540926" lon="6.183580840006471">
        <ele>68.170000000000002</ele>
        <time>2018-11-04T09:57:51Z</time>
      </trkpt>
      <trkpt lat="51.174483960494399" lon="6.183799272403121">
        <ele>67.219999999999999</ele>
        <time>2018-11-04T09:57:55Z</time>
      </trkpt>
      <trkpt lat="51.174810351803899" lon="6.184419700875878">
        <ele>66.879999999999995</ele>
        <time>2018-11-04T09:58:07Z</time>
      </trkpt>
      <trkpt lat="51.17499559186399" lon="6.184772327542305">
        <ele>69.079999999999998</ele>
        <time>2018-11-04T09:58:14Z</time>
      </trkpt>
      <trkpt lat="51.175027778372169" lon="6.184821780771017">
        <ele>69.079999999999998</ele>
        <time>2018-11-04T09:58:15Z</time>
      </trkpt>
      <trkpt lat="51.175054181367159" lon="6.184861343353987">
        <ele>69.959999999999994</ele>
        <time>2018-11-04T09:58:16Z</time>
      </trkpt>
      <trkpt lat="51.175076980143785" lon="6.184900738298893">
        <ele>69.930000000000007</ele>
        <time>2018-11-04T09:58:17Z</time>
      </trkpt>
      <trkpt lat="51.175092486664653" lon="6.184929823502898">
        <ele>69.909999999999997</ele>
        <time>2018-11-04T09:58:18Z</time>
      </trkpt>
      <trkpt lat="51.175105646252632" lon="6.18496410548687">
        <ele>69.909999999999997</ele>
        <time>2018-11-04T09:58:19Z</time>
      </trkpt>
      <trkpt lat="51.175114782527089" lon="6.185002326965332">
        <ele>69.879999999999995</ele>
        <time>2018-11-04T09:58:20Z</time>
      </trkpt>
      <trkpt lat="51.175127690657973" lon="6.18504767306149">
        <ele>69.849999999999994</ele>
        <time>2018-11-04T09:58:21Z</time>
      </trkpt>
      <trkpt lat="51.175249228253961" lon="6.18539359420538">
        <ele>69.700000000000003</ele>
        <time>2018-11-04T09:58:29Z</time>
      </trkpt>
      <trkpt lat="51.175261633470654" lon="6.185441371053457">
        <ele>69.689999999999998</ele>
        <time>2018-11-04T09:58:30Z</time>
      </trkpt>
      <trkpt lat="51.175457015633583" lon="6.185975214466453">
        <ele>69.439999999999998</ele>
        <time>2018-11-04T09:58:42Z</time>
      </trkpt>
      <trkpt lat="51.175601184368134" lon="6.186382239684463">
        <ele>69.280000000000001</ele>
        <time>2018-11-04T09:58:51Z</time>
      </trkpt>
      <trkpt lat="51.175661785528064" lon="6.186544764786959">
        <ele>66.849999999999994</ele>
        <time>2018-11-04T09:58:54Z</time>
      </trkpt>
      <trkpt lat="51.175673604011536" lon="6.186583656817675">
        <ele>66.849999999999994</ele>
        <time>2018-11-04T09:58:55Z</time>
      </trkpt>
      <trkpt lat="51.175690954551101" lon="6.186629170551896">
        <ele>66.810000000000002</ele>
        <time>2018-11-04T09:58:56Z</time>
      </trkpt>
      <trkpt lat="51.175868902355433" lon="6.187253873795271">
        <ele>65.780000000000001</ele>
        <time>2018-11-04T09:59:08Z</time>
      </trkpt>
      <trkpt lat="51.176108121871948" lon="6.187896598130465">
        <ele>65.480000000000004</ele>
        <time>2018-11-04T09:59:20Z</time>
      </trkpt>
      <trkpt lat="51.176198227331042" lon="6.188164819031954">
        <ele>65.260000000000005</ele>
        <time>2018-11-04T09:59:31Z</time>
      </trkpt>
      <trkpt lat="51.176244746893644" lon="6.188287949189544">
        <ele>65.170000000000002</ele>
        <time>2018-11-04T09:59:36Z</time>
      </trkpt>
      <trkpt lat="51.176268719136715" lon="6.188334301114082">
        <ele>65.099999999999994</ele>
        <time>2018-11-04T09:59:38Z</time>
      </trkpt>
      <trkpt lat="51.176376007497311" lon="6.188556840643287">
        <ele>64.849999999999994</ele>
        <time>2018-11-04T09:59:50Z</time>
      </trkpt>
      <trkpt lat="51.176481787115335" lon="6.188798826187849">
        <ele>64.629999999999995</ele>
        <time>2018-11-04T10:00:03Z</time>
      </trkpt>
      <trkpt lat="51.176497042179108" lon="6.188821708783507">
        <ele>64.609999999999999</ele>
        <time>2018-11-04T10:00:04Z</time>
      </trkpt>
      <trkpt lat="51.176509112119675" lon="6.188840148970485">
        <ele>64.599999999999994</ele>
        <time>2018-11-04T10:00:05Z</time>
      </trkpt>
      <trkpt lat="51.176632577553391" lon="6.189114823937416">
        <ele>64.400000000000006</ele>
        <time>2018-11-04T10:00:18Z</time>
      </trkpt>
      <trkpt lat="51.176679348573089" lon="6.189131587743759">
        <ele>64.370000000000005</ele>
        <time>2018-11-04T10:00:21Z</time>
      </trkpt>
      <trkpt lat="51.176913371309638" lon="6.188883651047945">
        <ele>64.230000000000004</ele>
        <time>2018-11-04T10:00:36Z</time>
      </trkpt>
      <trkpt lat="51.176998279988766" lon="6.188765047118068">
        <ele>64.189999999999998</ele>
        <time>2018-11-04T10:00:43Z</time>
      </trkpt>
      <trkpt lat="51.177011607214808" lon="6.188749205321074">
        <ele>64.189999999999998</ele>
        <time>2018-11-04T10:00:44Z</time>
      </trkpt>
      <trkpt lat="51.177028873935342" lon="6.188733614981175">
        <ele>64.180000000000007</ele>
        <time>2018-11-04T10:00:45Z</time>
      </trkpt>
      <trkpt lat="51.177042787894607" lon="6.188712827861309">
        <ele>64.180000000000007</ele>
        <time>2018-11-04T10:00:46Z</time>
      </trkpt>
      <trkpt lat="51.177056198939681" lon="6.188694052398205">
        <ele>64.170000000000002</ele>
        <time>2018-11-04T10:00:47Z</time>
      </trkpt>
      <trkpt lat="51.177067849785089" lon="6.188678713515401">
        <ele>64.170000000000002</ele>
        <time>2018-11-04T10:00:48Z</time>
      </trkpt>
      <trkpt lat="51.177186872810125" lon="6.188643258064985">
        <ele>64.150000000000006</ele>
        <time>2018-11-04T10:00:57Z</time>
      </trkpt>
      <trkpt lat="51.177200200036168" lon="6.188654657453299">
        <ele>64.150000000000006</ele>
        <time>2018-11-04T10:00:58Z</time>
      </trkpt>
      <trkpt lat="51.177212353795767" lon="6.188667649403215">
        <ele>64.150000000000006</ele>
        <time>2018-11-04T10:00:59Z</time>
      </trkpt>
      <trkpt lat="51.177222412079573" lon="6.188684077933431">
        <ele>64.150000000000006</ele>
        <time>2018-11-04T10:01:00Z</time>
      </trkpt>
      <trkpt lat="51.177227273583412" lon="6.188706876710057">
        <ele>64.150000000000006</ele>
        <time>2018-11-04T10:01:01Z</time>
      </trkpt>
      <trkpt lat="51.177238337695599" lon="6.188722299411893">
        <ele>64.140000000000001</ele>
        <time>2018-11-04T10:01:02Z</time>
      </trkpt>
      <trkpt lat="51.177248312160373" lon="6.188744679093361">
        <ele>64.140000000000001</ele>
        <time>2018-11-04T10:01:03Z</time>
      </trkpt>
      <trkpt lat="51.177253928035498" lon="6.188768316060305">
        <ele>64.129999999999995</ele>
        <time>2018-11-04T10:01:04Z</time>
      </trkpt>
      <trkpt lat="51.17726138792932" lon="6.188797987997532">
        <ele>64.129999999999995</ele>
        <time>2018-11-04T10:01:05Z</time>
      </trkpt>
      <trkpt lat="51.177269266918302" lon="6.188827324658632">
        <ele>64.129999999999995</ele>
        <time>2018-11-04T10:01:06Z</time>
      </trkpt>
      <trkpt lat="51.177275218069553" lon="6.188866384327412">
        <ele>64.129999999999995</ele>
        <time>2018-11-04T10:01:07Z</time>
      </trkpt>
      <trkpt lat="51.177283935248852" lon="6.188904019072652">
        <ele>64.120000000000005</ele>
        <time>2018-11-04T10:01:08Z</time>
      </trkpt>
      <trkpt lat="51.177296005189419" lon="6.188937965780497">
        <ele>64.109999999999999</ele>
        <time>2018-11-04T10:01:09Z</time>
      </trkpt>
      <trkpt lat="51.17730338126421" lon="6.188975097611547">
        <ele>64.109999999999999</ele>
        <time>2018-11-04T10:01:10Z</time>
      </trkpt>
      <trkpt lat="51.177389463409781" lon="6.189313977956772">
        <ele>64.019999999999996</ele>
        <time>2018-11-04T10:01:24Z</time>
      </trkpt>
      <trkpt lat="51.177441515028477" lon="6.189556550234556">
        <ele>63.909999999999997</ele>
        <time>2018-11-04T10:01:38Z</time>
      </trkpt>
      <trkpt lat="51.177511001005769" lon="6.189870787784457">
        <ele>63.770000000000003</ele>
        <time>2018-11-04T10:01:52Z</time>
      </trkpt>
      <trkpt lat="51.177544444799423" lon="6.190054938197136">
        <ele>63.700000000000003</ele>
        <time>2018-11-04T10:01:59Z</time>
      </trkpt>
      <trkpt lat="51.177555089816451" lon="6.190091483294964">
        <ele>63.689999999999998</ele>
        <time>2018-11-04T10:02:00Z</time>
      </trkpt>
      <trkpt lat="51.177561460062861" lon="6.190124256536365">
        <ele>63.659999999999997</ele>
        <time>2018-11-04T10:02:01Z</time>
      </trkpt>
      <trkpt lat="51.17756531573832" lon="6.190160633996129">
        <ele>63.659999999999997</ele>
        <time>2018-11-04T10:02:02Z</time>
      </trkpt>
      <trkpt lat="51.177574619650841" lon="6.190194999799132">
        <ele>63.670000000000002</ele>
        <time>2018-11-04T10:02:03Z</time>
      </trkpt>
      <trkpt lat="51.177579229697585" lon="6.190226515755057">
        <ele>63.659999999999997</ele>
        <time>2018-11-04T10:02:04Z</time>
      </trkpt>
      <trkpt lat="51.177644105628133" lon="6.190500603988767">
        <ele>63.509999999999998</ele>
        <time>2018-11-04T10:02:17Z</time>
      </trkpt>
      <trkpt lat="51.177719039842486" lon="6.190660698339343">
        <ele>63.329999999999998</ele>
        <time>2018-11-04T10:02:29Z</time>
      </trkpt>
      <trkpt lat="51.177725410088897" lon="6.190676372498274">
        <ele>63.310000000000002</ele>
        <time>2018-11-04T10:02:30Z</time>
      </trkpt>
      <trkpt lat="51.177736222743988" lon="6.190695315599442">
        <ele>63.299999999999997</ele>
        <time>2018-11-04T10:02:31Z</time>
      </trkpt>
      <trkpt lat="51.177748125046492" lon="6.190719623118639">
        <ele>63.280000000000001</ele>
        <time>2018-11-04T10:02:32Z</time>
      </trkpt>
      <trkpt lat="51.177758015692234" lon="6.190745355561376">
        <ele>63.270000000000003</ele>
        <time>2018-11-04T10:02:33Z</time>
      </trkpt>
      <trkpt lat="51.177910147234797" lon="6.19093126617372">
        <ele>63.079999999999998</ele>
        <time>2018-11-04T10:02:46Z</time>
      </trkpt>
      <trkpt lat="51.178094549104571" lon="6.191152213141322">
        <ele>62.729999999999997</ele>
        <time>2018-11-04T10:03:05Z</time>
      </trkpt>
      <trkpt lat="51.178253218531609" lon="6.191461840644479">
        <ele>62.350000000000001</ele>
        <time>2018-11-04T10:03:22Z</time>
      </trkpt>
      <trkpt lat="51.178265372291207" lon="6.191483549773693">
        <ele>62.340000000000003</ele>
        <time>2018-11-04T10:03:23Z</time>
      </trkpt>
      <trkpt lat="51.178279705345631" lon="6.191511964425445">
        <ele>62.299999999999997</ele>
        <time>2018-11-04T10:03:24Z</time>
      </trkpt>
      <trkpt lat="51.178430411964655" lon="6.191839277744293">
        <ele>61.880000000000003</ele>
        <time>2018-11-04T10:03:43Z</time>
      </trkpt>
      <trkpt lat="51.178620094433427" lon="6.192155694589019">
        <ele>61.439999999999998</ele>
        <time>2018-11-04T10:04:01Z</time>
      </trkpt>
      <trkpt lat="51.178796701133251" lon="6.192504549399018">
        <ele>60.880000000000003</ele>
        <time>2018-11-04T10:04:22Z</time>
      </trkpt>
      <trkpt lat="51.178908767178655" lon="6.192716360092163">
        <ele>59.700000000000003</ele>
        <time>2018-11-04T10:04:32Z</time>
      </trkpt>
      <trkpt lat="51.178926955908537" lon="6.192765310406685">
        <ele>59.619999999999997</ele>
        <time>2018-11-04T10:04:35Z</time>
      </trkpt>
      <trkpt lat="51.178963584825397" lon="6.192797999829054">
        <ele>59.600000000000001</ele>
        <time>2018-11-04T10:04:37Z</time>
      </trkpt>
      <trkpt lat="51.178975403308868" lon="6.1928197927773">
        <ele>59.57</ele>
        <time>2018-11-04T10:04:38Z</time>
      </trkpt>
      <trkpt lat="51.179018653929234" lon="6.192874358966947">
        <ele>59.460000000000001</ele>
        <time>2018-11-04T10:04:42Z</time>
      </trkpt>
      <trkpt lat="51.179127031937242" lon="6.193036548793316">
        <ele>58.189999999999998</ele>
        <time>2018-11-04T10:04:53Z</time>
      </trkpt>
      <trkpt lat="51.179307159036398" lon="6.193348690867424">
        <ele>57.719999999999999</ele>
        <time>2018-11-04T10:05:10Z</time>
      </trkpt>
      <trkpt lat="51.179397935047746" lon="6.193526135757566">
        <ele>57.469999999999999</ele>
        <time>2018-11-04T10:05:20Z</time>
      </trkpt>
      <trkpt lat="51.179412854835391" lon="6.193540217354894">
        <ele>57.439999999999998</ele>
        <time>2018-11-04T10:05:21Z</time>
      </trkpt>
      <trkpt lat="51.179467001929879" lon="6.193628562614322">
        <ele>57.32</ele>
        <time>2018-11-04T10:05:25Z</time>
      </trkpt>
      <trkpt lat="51.179622570052743" lon="6.193842552602291">
        <ele>57.009999999999998</ele>
        <time>2018-11-04T10:05:36Z</time>
      </trkpt>
      <trkpt lat="51.179789789021015" lon="6.194080095738173">
        <ele>55.740000000000002</ele>
        <time>2018-11-04T10:05:50Z</time>
      </trkpt>
      <trkpt lat="51.179943429306149" lon="6.194317638874054">
        <ele>55.32</ele>
        <time>2018-11-04T10:06:05Z</time>
      </trkpt>
      <trkpt lat="51.180054405704141" lon="6.194604635238648">
        <ele>54.810000000000002</ele>
        <time>2018-11-04T10:06:22Z</time>
      </trkpt>
      <trkpt lat="51.180228414013982" lon="6.194969667121768">
        <ele>53.460000000000001</ele>
        <time>2018-11-04T10:06:43Z</time>
      </trkpt>
      <trkpt lat="51.180402422323823" lon="6.195253729820252">
        <ele>52.890000000000001</ele>
        <time>2018-11-04T10:07:01Z</time>
      </trkpt>
      <trkpt lat="51.180411642417312" lon="6.195269152522087">
        <ele>52.859999999999999</ele>
        <time>2018-11-04T10:07:02Z</time>
      </trkpt>
      <trkpt lat="51.180422371253371" lon="6.195275187492371">
        <ele>52.829999999999998</ele>
        <time>2018-11-04T10:07:03Z</time>
      </trkpt>
      <trkpt lat="51.18043745867908" lon="6.195282144472003">
        <ele>52.810000000000002</ele>
        <time>2018-11-04T10:07:04Z</time>
      </trkpt>
      <trkpt lat="51.18044919334352" lon="6.195293124765158">
        <ele>52.770000000000003</ele>
        <time>2018-11-04T10:07:05Z</time>
      </trkpt>
      <trkpt lat="51.180528569966555" lon="6.195395886898041">
        <ele>52.579999999999998</ele>
        <time>2018-11-04T10:07:12Z</time>
      </trkpt>
      <trkpt lat="51.180543405935168" lon="6.195415249094367">
        <ele>52.530000000000001</ele>
        <time>2018-11-04T10:07:13Z</time>
      </trkpt>
      <trkpt lat="51.180563690140843" lon="6.195426564663649">
        <ele>52.509999999999998</ele>
        <time>2018-11-04T10:07:14Z</time>
      </trkpt>
      <trkpt lat="51.180745074525476" lon="6.195661509409547">
        <ele>51.140000000000001</ele>
        <time>2018-11-04T10:07:30Z</time>
      </trkpt>
      <trkpt lat="51.180884214118123" lon="6.195613229647279">
        <ele>50.93</ele>
        <time>2018-11-04T10:07:37Z</time>
      </trkpt>
      <trkpt lat="51.181092085316777" lon="6.195390522480011">
        <ele>50.520000000000003</ele>
        <time>2018-11-04T10:07:52Z</time>
      </trkpt>
      <trkpt lat="51.181231308728456" lon="6.195143591612577">
        <ele>50.090000000000003</ele>
        <time>2018-11-04T10:08:07Z</time>
      </trkpt>
      <trkpt lat="51.181285791099072" lon="6.195022305473685">
        <ele>52.479999999999997</ele>
        <time>2018-11-04T10:08:14Z</time>
      </trkpt>
      <trkpt lat="51.181350918486714" lon="6.194795155897737">
        <ele>52.219999999999999</ele>
        <time>2018-11-04T10:08:24Z</time>
      </trkpt>
      <trkpt lat="51.181360809132457" lon="6.194752994924784">
        <ele>52.170000000000002</ele>
        <time>2018-11-04T10:08:26Z</time>
      </trkpt>
      <trkpt lat="51.181469187140465" lon="6.194453509524465">
        <ele>51.689999999999998</ele>
        <time>2018-11-04T10:08:41Z</time>
      </trkpt>
      <trkpt lat="51.181517885997891" lon="6.194094177335501">
        <ele>51.229999999999997</ele>
        <time>2018-11-04T10:08:59Z</time>
      </trkpt>
      <trkpt lat="51.182265384122729" lon="6.19239273481071">
        <ele>49.560000000000002</ele>
        <time>2018-11-04T10:10:23Z</time>
      </trkpt>
      <trkpt lat="51.182393124327064" lon="6.192068941891193">
        <ele>49.420000000000002</ele>
        <time>2018-11-04T10:10:37Z</time>
      </trkpt>
      <trkpt lat="51.18243888951838" lon="6.191973052918911">
        <ele>46.909999999999997</ele>
        <time>2018-11-04T10:10:42Z</time>
      </trkpt>
      <trkpt lat="51.182536790147424" lon="6.191733162850142">
        <ele>45.920000000000002</ele>
        <time>2018-11-04T10:10:53Z</time>
      </trkpt>
      <trkpt lat="51.18261675350368" lon="6.191495200619102">
        <ele>44.880000000000003</ele>
        <time>2018-11-04T10:11:04Z</time>
      </trkpt>
      <trkpt lat="51.182736614719033" lon="6.191166630014777">
        <ele>44.840000000000003</ele>
        <time>2018-11-04T10:11:16Z</time>
      </trkpt>
      <trkpt lat="51.182800568640232" lon="6.190982898697257">
        <ele>44.75</ele>
        <time>2018-11-04T10:11:26Z</time>
      </trkpt>
      <trkpt lat="51.184084843844175" lon="6.187935238704085">
        <ele>49.43</ele>
        <time>2018-11-04T10:14:02Z</time>
      </trkpt>
      <trkpt lat="51.184641821309924" lon="6.187906488776207">
        <ele>49.189999999999998</ele>
        <time>2018-11-04T10:14:17Z</time>
      </trkpt>
      <trkpt lat="51.186240836977959" lon="6.186640821397305">
        <ele>49.18</ele>
        <time>2018-11-04T10:14:18Z</time>
      </trkpt>
      <trkpt lat="51.184318447485566" lon="6.187273655086756">
        <ele>48.990000000000002</ele>
        <time>2018-11-04T10:14:33Z</time>
      </trkpt>
      <trkpt lat="51.183117991313338" lon="6.184949353337288">
        <ele>47.409999999999997</ele>
        <time>2018-11-04T10:16:18Z</time>
      </trkpt>
      <trkpt lat="51.182957561686635" lon="6.184604773297906">
        <ele>47.229999999999997</ele>
        <time>2018-11-04T10:16:34Z</time>
      </trkpt>
      <trkpt lat="51.182777183130383" lon="6.184341832995415">
        <ele>47.079999999999998</ele>
        <time>2018-11-04T10:16:51Z</time>
      </trkpt>
      <trkpt lat="51.182582974433899" lon="6.184027930721641">
        <ele>46.969999999999999</ele>
        <time>2018-11-04T10:17:05Z</time>
      </trkpt>
      <trkpt lat="51.182381976395845" lon="6.183684105053544">
        <ele>46.829999999999998</ele>
        <time>2018-11-04T10:17:16Z</time>
      </trkpt>
      <trkpt lat="51.182272173464298" lon="6.183510767295957">
        <ele>46.75</ele>
        <time>2018-11-04T10:17:22Z</time>
      </trkpt>
      <trkpt lat="51.182250380516052" lon="6.183475814759731">
        <ele>46.740000000000002</ele>
        <time>2018-11-04T10:17:23Z</time>
      </trkpt>
      <trkpt lat="51.182217439636588" lon="6.183441113680601">
        <ele>46.719999999999999</ele>
        <time>2018-11-04T10:17:24Z</time>
      </trkpt>
      <trkpt lat="51.182193551212549" lon="6.183417728170753">
        <ele>46.710000000000001</ele>
        <time>2018-11-04T10:17:25Z</time>
      </trkpt>
      <trkpt lat="51.182167064398527" lon="6.183397695422173">
        <ele>46.689999999999998</ele>
        <time>2018-11-04T10:17:26Z</time>
      </trkpt>
      <trkpt lat="51.182149546220899" lon="6.183371208608151">
        <ele>46.670000000000002</ele>
        <time>2018-11-04T10:17:27Z</time>
      </trkpt>
      <trkpt lat="51.182127250358462" lon="6.183322677388787">
        <ele>46.659999999999997</ele>
        <time>2018-11-04T10:17:28Z</time>
      </trkpt>
      <trkpt lat="51.182108223438263" lon="6.183289065957069">
        <ele>46.649999999999999</ele>
        <time>2018-11-04T10:17:29Z</time>
      </trkpt>
      <trkpt lat="51.182087017223239" lon="6.183251263573766">
        <ele>46.640000000000001</ele>
        <time>2018-11-04T10:17:30Z</time>
      </trkpt>
      <trkpt lat="51.182072600349784" lon="6.183215975761414">
        <ele>46.630000000000003</ele>
        <time>2018-11-04T10:17:31Z</time>
      </trkpt>
      <trkpt lat="51.181863471865654" lon="6.182881705462933">
        <ele>46.5</ele>
        <time>2018-11-04T10:17:41Z</time>
      </trkpt>
      <trkpt lat="51.181587120518088" lon="6.182457413524389">
        <ele>46.369999999999997</ele>
        <time>2018-11-04T10:17:52Z</time>
      </trkpt>
      <trkpt lat="51.181369358673692" lon="6.182144265621901">
        <ele>46.25</ele>
        <time>2018-11-04T10:18:02Z</time>
      </trkpt>
      <trkpt lat="51.181148998439312" lon="6.181815946474671">
        <ele>46.159999999999997</ele>
        <time>2018-11-04T10:18:13Z</time>
      </trkpt>
      <trkpt lat="51.180892260745168" lon="6.181385284289718">
        <ele>46.049999999999997</ele>
        <time>2018-11-04T10:18:23Z</time>
      </trkpt>
      <trkpt lat="51.180621776729822" lon="6.180890835821629">
        <ele>45.969999999999999</ele>
        <time>2018-11-04T10:18:35Z</time>
      </trkpt>
      <trkpt lat="51.180361853912473" lon="6.180407200008631">
        <ele>45.93</ele>
        <time>2018-11-04T10:18:46Z</time>
      </trkpt>
      <trkpt lat="51.180255152285099" lon="6.18021609261632">
        <ele>45.93</ele>
        <time>2018-11-04T10:18:51Z</time>
      </trkpt>
      <trkpt lat="51.180240316316485" lon="6.180175608024001">
        <ele>45.93</ele>
        <time>2018-11-04T10:18:52Z</time>
      </trkpt>
      <trkpt lat="51.180222546681762" lon="6.180139733478427">
        <ele>45.93</ele>
        <time>2018-11-04T10:18:53Z</time>
      </trkpt>
      <trkpt lat="51.180007802322507" lon="6.179759949445725">
        <ele>46.729999999999997</ele>
        <time>2018-11-04T10:19:04Z</time>
      </trkpt>
      <trkpt lat="51.179743269458413" lon="6.179244378581643">
        <ele>47.719999999999999</ele>
        <time>2018-11-04T10:19:15Z</time>
      </trkpt>
      <trkpt lat="51.179510336369276" lon="6.178843388333917">
        <ele>47.729999999999997</ele>
        <time>2018-11-04T10:19:25Z</time>
      </trkpt>
      <trkpt lat="51.179318223148584" lon="6.178529569879174">
        <ele>47.689999999999998</ele>
        <time>2018-11-04T10:19:33Z</time>
      </trkpt>
      <trkpt lat="51.179289557039738" lon="6.178486067801714">
        <ele>47.689999999999998</ele>
        <time>2018-11-04T10:19:34Z</time>
      </trkpt>
      <trkpt lat="51.179266087710857" lon="6.178442817181349">
        <ele>47.700000000000003</ele>
        <time>2018-11-04T10:19:35Z</time>
      </trkpt>
      <trkpt lat="51.179038854315877" lon="6.17805833928287">
        <ele>47.719999999999999</ele>
        <time>2018-11-04T10:19:44Z</time>
      </trkpt>
      <trkpt lat="51.178756384178996" lon="6.177580067887902">
        <ele>47.789999999999999</ele>
        <time>2018-11-04T10:19:56Z</time>
      </trkpt>
      <trkpt lat="51.178491432219744" lon="6.17710649035871">
        <ele>47.799999999999997</ele>
        <time>2018-11-04T10:20:06Z</time>
      </trkpt>
      <trkpt lat="51.178254811093211" lon="6.176709439605475">
        <ele>47.82</ele>
        <time>2018-11-04T10:20:16Z</time>
      </trkpt>
      <trkpt lat="51.177943339571357" lon="6.176173416897655">
        <ele>48.759999999999998</ele>
        <time>2018-11-04T10:20:28Z</time>
      </trkpt>
      <trkpt lat="51.177687775343657" lon="6.175725739449263">
        <ele>48.759999999999998</ele>
        <time>2018-11-04T10:20:38Z</time>
      </trkpt>
      <trkpt lat="51.177478479221463" lon="6.17535618133843">
        <ele>48.770000000000003</ele>
        <time>2018-11-04T10:20:48Z</time>
      </trkpt>
      <trkpt lat="51.177312433719635" lon="6.175058204680681">
        <ele>48.770000000000003</ele>
        <time>2018-11-04T10:20:58Z</time>
      </trkpt>
      <trkpt lat="51.177079416811466" lon="6.17471412755549">
        <ele>48.68</ele>
        <time>2018-11-04T10:21:12Z</time>
      </trkpt>
      <trkpt lat="51.177043961361051" lon="6.174593009054661">
        <ele>48.630000000000003</ele>
        <time>2018-11-04T10:21:24Z</time>
      </trkpt>
      <trkpt lat="51.177028035745025" lon="6.174504831433296">
        <ele>48.649999999999999</ele>
        <time>2018-11-04T10:21:49Z</time>
      </trkpt>
      <trkpt lat="51.176996016874909" lon="6.174511536955833">
        <ele>48.82</ele>
        <time>2018-11-04T10:22:09Z</time>
      </trkpt>
      <trkpt lat="51.177051421254873" lon="6.174606084823608">
        <ele>50.060000000000002</ele>
        <time>2018-11-04T10:22:32Z</time>
      </trkpt>
      <trkpt lat="51.177004650235176" lon="6.174792498350143">
        <ele>50.170000000000002</ele>
        <time>2018-11-04T10:22:43Z</time>
      </trkpt>
      <trkpt lat="51.176850674673915" lon="6.175026772543788">
        <ele>50.310000000000002</ele>
        <time>2018-11-04T10:22:59Z</time>
      </trkpt>
      <trkpt lat="51.176821505650878" lon="6.175076896324754">
        <ele>47.140000000000001</ele>
        <time>2018-11-04T10:23:02Z</time>
      </trkpt>
      <trkpt lat="51.17680985480547" lon="6.175107238814235">
        <ele>47.140000000000001</ele>
        <time>2018-11-04T10:23:03Z</time>
      </trkpt>
      <trkpt lat="51.176798539236188" lon="6.175123499706388">
        <ele>50.450000000000003</ele>
        <time>2018-11-04T10:23:04Z</time>
      </trkpt>
      <trkpt lat="51.176789486780763" lon="6.175136240199208">
        <ele>50.439999999999998</ele>
        <time>2018-11-04T10:23:05Z</time>
      </trkpt>
      <trkpt lat="51.17663936689496" lon="6.175441676750779">
        <ele>50.539999999999999</ele>
        <time>2018-11-04T10:23:23Z</time>
      </trkpt>
      <trkpt lat="51.176536940038204" lon="6.175653822720051">
        <ele>50.579999999999998</ele>
        <time>2018-11-04T10:23:33Z</time>
      </trkpt>
      <trkpt lat="51.176482122391462" lon="6.175803020596504">
        <ele>50.600000000000001</ele>
        <time>2018-11-04T10:23:40Z</time>
      </trkpt>
      <trkpt lat="51.176476757973433" lon="6.175824897363782">
        <ele>50.600000000000001</ele>
        <time>2018-11-04T10:23:41Z</time>
      </trkpt>
      <trkpt lat="51.176469130441546" lon="6.175844594836235">
        <ele>50.609999999999999</ele>
        <time>2018-11-04T10:23:42Z</time>
      </trkpt>
      <trkpt lat="51.176360081881285" lon="6.176050286740065">
        <ele>50.619999999999997</ele>
        <time>2018-11-04T10:23:55Z</time>
      </trkpt>
      <trkpt lat="51.176347173750401" lon="6.176060512661934">
        <ele>50.619999999999997</ele>
        <time>2018-11-04T10:23:56Z</time>
      </trkpt>
      <trkpt lat="51.176199903711677" lon="6.176342815160751">
        <ele>50.619999999999997</ele>
        <time>2018-11-04T10:24:11Z</time>
      </trkpt>
      <trkpt lat="51.176068056374788" lon="6.176576921716332">
        <ele>50.579999999999998</ele>
        <time>2018-11-04T10:24:23Z</time>
      </trkpt>
      <trkpt lat="51.175919696688652" lon="6.1768445558846">
        <ele>50.549999999999997</ele>
        <time>2018-11-04T10:24:38Z</time>
      </trkpt>
      <trkpt lat="51.175867393612862" lon="6.176950419321656">
        <ele>50.539999999999999</ele>
        <time>2018-11-04T10:24:43Z</time>
      </trkpt>
      <trkpt lat="51.175854820758104" lon="6.176972296088934">
        <ele>50.530000000000001</ele>
        <time>2018-11-04T10:24:44Z</time>
      </trkpt>
      <trkpt lat="51.175723141059279" lon="6.177175724878907">
        <ele>50.460000000000001</ele>
        <time>2018-11-04T10:24:58Z</time>
      </trkpt>
      <trkpt lat="51.175607554614544" lon="6.177485771477222">
        <ele>50.350000000000001</ele>
        <time>2018-11-04T10:25:09Z</time>
      </trkpt>
      <trkpt lat="51.175484424456954" lon="6.177748208865523">
        <ele>50.32</ele>
        <time>2018-11-04T10:25:23Z</time>
      </trkpt>
      <trkpt lat="51.175387864932418" lon="6.177901513874531">
        <ele>50.310000000000002</ele>
        <time>2018-11-04T10:25:34Z</time>
      </trkpt>
      <trkpt lat="51.175278900191188" lon="6.178133022040129">
        <ele>50.259999999999998</ele>
        <time>2018-11-04T10:25:45Z</time>
      </trkpt>
      <trkpt lat="51.175219640135765" lon="6.178181888535619">
        <ele>50.229999999999997</ele>
        <time>2018-11-04T10:25:50Z</time>
      </trkpt>
      <trkpt lat="51.175174964591861" lon="6.178257577121258">
        <ele>50.210000000000001</ele>
        <time>2018-11-04T10:25:54Z</time>
      </trkpt>
      <trkpt lat="51.175164571031928" lon="6.178290350362659">
        <ele>50.210000000000001</ele>
        <time>2018-11-04T10:25:55Z</time>
      </trkpt>
      <trkpt lat="51.175152333453298" lon="6.178324380889535">
        <ele>50.210000000000001</ele>
        <time>2018-11-04T10:25:56Z</time>
      </trkpt>
      <trkpt lat="51.175140179693699" lon="6.178350700065494">
        <ele>50.210000000000001</ele>
        <time>2018-11-04T10:25:57Z</time>
      </trkpt>
      <trkpt lat="51.175026101991534" lon="6.178571814671159">
        <ele>50.100000000000001</ele>
        <time>2018-11-04T10:26:08Z</time>
      </trkpt>
      <trkpt lat="51.174883358180523" lon="6.178893595933914">
        <ele>47.670000000000002</ele>
        <time>2018-11-04T10:26:22Z</time>
      </trkpt>
      <trkpt lat="51.174847315996885" lon="6.178907761350274">
        <ele>47.649999999999999</ele>
        <time>2018-11-04T10:26:25Z</time>
      </trkpt>
      <trkpt lat="51.174825187772512" lon="6.178885716944933">
        <ele>47.659999999999997</ele>
        <time>2018-11-04T10:26:27Z</time>
      </trkpt>
      <trkpt lat="51.174775315448642" lon="6.178802568465471">
        <ele>47.630000000000003</ele>
        <time>2018-11-04T10:26:33Z</time>
      </trkpt>
      <trkpt lat="51.174680599942803" lon="6.178623279556632">
        <ele>47.670000000000002</ele>
        <time>2018-11-04T10:26:47Z</time>
      </trkpt>
      <trkpt lat="51.174598708748817" lon="6.178304264321923">
        <ele>47.670000000000002</ele>
        <time>2018-11-04T10:27:05Z</time>
      </trkpt>
      <trkpt lat="51.17458906956017" lon="6.178246177732945">
        <ele>47.700000000000003</ele>
        <time>2018-11-04T10:27:08Z</time>
      </trkpt>
      <trkpt lat="51.174558978527784" lon="6.178186247125268">
        <ele>47.700000000000003</ele>
        <time>2018-11-04T10:27:10Z</time>
      </trkpt>
      <trkpt lat="51.17444003932178" lon="6.17785356938839">
        <ele>47.710000000000001</ele>
        <time>2018-11-04T10:27:23Z</time>
      </trkpt>
      <trkpt lat="51.174417743459344" lon="6.177783412858844">
        <ele>50.020000000000003</ele>
        <time>2018-11-04T10:27:26Z</time>
      </trkpt>
      <trkpt lat="51.174318334087729" lon="6.177470097318292">
        <ele>50.060000000000002</ele>
        <time>2018-11-04T10:27:39Z</time>
      </trkpt>
      <trkpt lat="51.174309281632304" lon="6.177435480058193">
        <ele>51.170000000000002</ele>
        <time>2018-11-04T10:27:40Z</time>
      </trkpt>
      <trkpt lat="51.174302157014608" lon="6.177398934960365">
        <ele>51.159999999999997</ele>
        <time>2018-11-04T10:27:41Z</time>
      </trkpt>
      <trkpt lat="51.174294864758849" lon="6.177368676289916">
        <ele>51.170000000000002</ele>
        <time>2018-11-04T10:27:42Z</time>
      </trkpt>
      <trkpt lat="51.17428857833147" lon="6.177342776209116">
        <ele>51.170000000000002</ele>
        <time>2018-11-04T10:27:43Z</time>
      </trkpt>
      <trkpt lat="51.174243818968534" lon="6.177145466208458">
        <ele>51.170000000000002</ele>
        <time>2018-11-04T10:27:55Z</time>
      </trkpt>
      <trkpt lat="51.174155808985233" lon="6.176771046593785">
        <ele>53</ele>
        <time>2018-11-04T10:28:12Z</time>
      </trkpt>
      <trkpt lat="51.174049274995923" lon="6.176491426303983">
        <ele>54.82</ele>
        <time>2018-11-04T10:28:23Z</time>
      </trkpt>
      <trkpt lat="51.173878954723477" lon="6.176064955070615">
        <ele>54.780000000000001</ele>
        <time>2018-11-04T10:28:41Z</time>
      </trkpt>
      <trkpt lat="51.173862107098103" lon="6.176021620631218">
        <ele>52.509999999999998</ele>
        <time>2018-11-04T10:28:43Z</time>
      </trkpt>
      <trkpt lat="51.173703940585256" lon="6.175567153841257">
        <ele>51.640000000000001</ele>
        <time>2018-11-04T10:29:00Z</time>
      </trkpt>
      <trkpt lat="51.173617858439684" lon="6.175323827192187">
        <ele>51.009999999999998</ele>
        <time>2018-11-04T10:29:10Z</time>
      </trkpt>
      <trkpt lat="51.173595143482089" lon="6.175248473882675">
        <ele>51.049999999999997</ele>
        <time>2018-11-04T10:29:14Z</time>
      </trkpt>
      <trkpt lat="51.173520712181926" lon="6.175011517480016">
        <ele>51.189999999999998</ele>
        <time>2018-11-04T10:29:26Z</time>
      </trkpt>
      <trkpt lat="51.173479473218322" lon="6.174928201362491">
        <ele>51.270000000000003</ele>
        <time>2018-11-04T10:29:31Z</time>
      </trkpt>
      <trkpt lat="51.173463631421328" lon="6.174914622679353">
        <ele>51.289999999999999</ele>
        <time>2018-11-04T10:29:32Z</time>
      </trkpt>
      <trkpt lat="51.173448543995619" lon="6.17490665987134">
        <ele>51.310000000000002</ele>
        <time>2018-11-04T10:29:33Z</time>
      </trkpt>
      <trkpt lat="51.1734305229038" lon="6.1748983617872">
        <ele>51.340000000000003</ele>
        <time>2018-11-04T10:29:34Z</time>
      </trkpt>
      <trkpt lat="51.173415603116155" lon="6.174899032339454">
        <ele>51.340000000000003</ele>
        <time>2018-11-04T10:29:35Z</time>
      </trkpt>
      <trkpt lat="51.17339825257659" lon="6.17489785887301">
        <ele>51.369999999999997</ele>
        <time>2018-11-04T10:29:36Z</time>
      </trkpt>
      <trkpt lat="51.17338459007442" lon="6.174901379272342">
        <ele>51.380000000000003</ele>
        <time>2018-11-04T10:29:37Z</time>
      </trkpt>
      <trkpt lat="51.173371095210314" lon="6.174906324595213">
        <ele>51.340000000000003</ele>
        <time>2018-11-04T10:29:38Z</time>
      </trkpt>
      <trkpt lat="51.173212844878435" lon="6.175124756991863">
        <ele>51.390000000000001</ele>
        <time>2018-11-04T10:29:53Z</time>
      </trkpt>
      <trkpt lat="51.173079907894135" lon="6.175389541313052">
        <ele>51.439999999999998</ele>
        <time>2018-11-04T10:30:05Z</time>
      </trkpt>
      <trkpt lat="51.172982342541218" lon="6.175613170489669">
        <ele>51.549999999999997</ele>
        <time>2018-11-04T10:30:15Z</time>
      </trkpt>
      <trkpt lat="51.172967925667763" lon="6.175621971487999">
        <ele>51.549999999999997</ele>
        <time>2018-11-04T10:30:16Z</time>
      </trkpt>
      <trkpt lat="51.172953341156244" lon="6.175633706152439">
        <ele>51.560000000000002</ele>
        <time>2018-11-04T10:30:17Z</time>
      </trkpt>
      <trkpt lat="51.17293699644506" lon="6.175655163824558">
        <ele>51.560000000000002</ele>
        <time>2018-11-04T10:30:18Z</time>
      </trkpt>
      <trkpt lat="51.172926435247064" lon="6.175669999793172">
        <ele>51.560000000000002</ele>
        <time>2018-11-04T10:30:19Z</time>
      </trkpt>
      <trkpt lat="51.172915287315845" lon="6.175678633153439">
        <ele>51.57</ele>
        <time>2018-11-04T10:30:20Z</time>
      </trkpt>
      <trkpt lat="51.17290279828012" lon="6.175703695043922">
        <ele>51.57</ele>
        <time>2018-11-04T10:30:21Z</time>
      </trkpt>
      <trkpt lat="51.172889554873109" lon="6.175722973421216">
        <ele>51.539999999999999</ele>
        <time>2018-11-04T10:30:22Z</time>
      </trkpt>
      <trkpt lat="51.17287932895124" lon="6.175738060846925">
        <ele>51.57</ele>
        <time>2018-11-04T10:30:23Z</time>
      </trkpt>
      <trkpt lat="51.172853512689471" lon="6.175772342830896">
        <ele>51.57</ele>
        <time>2018-11-04T10:30:25Z</time>
      </trkpt>
      <trkpt lat="51.172842532396317" lon="6.175789022818208">
        <ele>51.57</ele>
        <time>2018-11-04T10:30:26Z</time>
      </trkpt>
      <trkpt lat="51.172832474112511" lon="6.175803691148758">
        <ele>51.539999999999999</ele>
        <time>2018-11-04T10:30:27Z</time>
      </trkpt>
      <trkpt lat="51.172824343666434" lon="6.175817688927054">
        <ele>51.57</ele>
        <time>2018-11-04T10:30:28Z</time>
      </trkpt>
      <trkpt lat="51.172763323411345" lon="6.175929419696331">
        <ele>51.520000000000003</ele>
        <time>2018-11-04T10:30:34Z</time>
      </trkpt>
      <trkpt lat="51.172750080004334" lon="6.17594693787396">
        <ele>51.520000000000003</ele>
        <time>2018-11-04T10:30:35Z</time>
      </trkpt>
      <trkpt lat="51.17273616604507" lon="6.175963785499334">
        <ele>51.520000000000003</ele>
        <time>2018-11-04T10:30:36Z</time>
      </trkpt>
      <trkpt lat="51.172600043937564" lon="6.176283303648233">
        <ele>54.329999999999998</ele>
        <time>2018-11-04T10:30:49Z</time>
      </trkpt>
      <trkpt lat="51.172587051987648" lon="6.176316915079951">
        <ele>54.299999999999997</ele>
        <time>2018-11-04T10:30:50Z</time>
      </trkpt>
      <trkpt lat="51.172484206035733" lon="6.176573149859905">
        <ele>54.219999999999999</ele>
        <time>2018-11-04T10:31:01Z</time>
      </trkpt>
      <trkpt lat="51.172370631247759" lon="6.176845896989107">
        <ele>54.109999999999999</ele>
        <time>2018-11-04T10:31:14Z</time>
      </trkpt>
      <trkpt lat="51.172256218269467" lon="6.177036752924323">
        <ele>51.539999999999999</ele>
        <time>2018-11-04T10:31:28Z</time>
      </trkpt>
      <trkpt lat="51.172246495261788" lon="6.177057204768062">
        <ele>51.539999999999999</ele>
        <time>2018-11-04T10:31:29Z</time>
      </trkpt>
      <trkpt lat="51.172234676778316" lon="6.177076147869229">
        <ele>51.539999999999999</ele>
        <time>2018-11-04T10:31:30Z</time>
      </trkpt>
      <trkpt lat="51.172220427542925" lon="6.177096515893936">
        <ele>51.530000000000001</ele>
        <time>2018-11-04T10:31:31Z</time>
      </trkpt>
      <trkpt lat="51.172209614887834" lon="6.177111268043518">
        <ele>51.520000000000003</ele>
        <time>2018-11-04T10:31:32Z</time>
      </trkpt>
      <trkpt lat="51.17216938175261" lon="6.177175976336002">
        <ele>50.710000000000001</ele>
        <time>2018-11-04T10:31:36Z</time>
      </trkpt>
      <trkpt lat="51.172158233821392" lon="6.177190812304616">
        <ele>50.710000000000001</ele>
        <time>2018-11-04T10:31:37Z</time>
      </trkpt>
      <trkpt lat="51.172145744785666" lon="6.177218472585082">
        <ele>50.710000000000001</ele>
        <time>2018-11-04T10:31:38Z</time>
      </trkpt>
      <trkpt lat="51.17209511809051" lon="6.177347637712956">
        <ele>50.689999999999998</ele>
        <time>2018-11-04T10:31:42Z</time>
      </trkpt>
      <trkpt lat="51.1720403842628" lon="6.177477054297924">
        <ele>50.700000000000003</ele>
        <time>2018-11-04T10:31:47Z</time>
      </trkpt>
      <trkpt lat="51.171908285468817" lon="6.177900759503245">
        <ele>50.689999999999998</ele>
        <time>2018-11-04T10:32:02Z</time>
      </trkpt>
      <trkpt lat="51.171731511130929" lon="6.178174344822764">
        <ele>50.579999999999998</ele>
        <time>2018-11-04T10:32:19Z</time>
      </trkpt>
      <trkpt lat="51.171624222770333" lon="6.178358411416411">
        <ele>50.57</ele>
        <time>2018-11-04T10:32:30Z</time>
      </trkpt>
      <trkpt lat="51.17151559330523" lon="6.178613975644112">
        <ele>50.560000000000002</ele>
        <time>2018-11-04T10:32:42Z</time>
      </trkpt>
      <trkpt lat="51.171432696282864" lon="6.178735848516226">
        <ele>49.399999999999999</ele>
        <time>2018-11-04T10:32:51Z</time>
      </trkpt>
      <trkpt lat="51.171263800933957" lon="6.179048912599683">
        <ele>49.32</ele>
        <time>2018-11-04T10:33:04Z</time>
      </trkpt>
      <trkpt lat="51.17123806849122" lon="6.179077327251434">
        <ele>49.32</ele>
        <time>2018-11-04T10:33:07Z</time>
      </trkpt>
      <trkpt lat="51.17119699716568" lon="6.179111106321216">
        <ele>49.289999999999999</ele>
        <time>2018-11-04T10:33:11Z</time>
      </trkpt>
      <trkpt lat="51.171139162033796" lon="6.179090235382319">
        <ele>49.240000000000002</ele>
        <time>2018-11-04T10:33:16Z</time>
      </trkpt>
      <trkpt lat="51.171116782352328" lon="6.179008428007364">
        <ele>49.229999999999997</ele>
        <time>2018-11-04T10:33:21Z</time>
      </trkpt>
      <trkpt lat="51.171092726290226" lon="6.178930141031742">
        <ele>49.219999999999999</ele>
        <time>2018-11-04T10:33:26Z</time>
      </trkpt>
      <trkpt lat="51.171077052131295" lon="6.178881274536252">
        <ele>49.210000000000001</ele>
        <time>2018-11-04T10:33:28Z</time>
      </trkpt>
      <trkpt lat="51.171063724905252" lon="6.178827378898859">
        <ele>49.200000000000003</ele>
        <time>2018-11-04T10:33:31Z</time>
      </trkpt>
      <trkpt lat="51.171042518690228" lon="6.178778177127242">
        <ele>49.189999999999998</ele>
        <time>2018-11-04T10:33:33Z</time>
      </trkpt>
      <trkpt lat="51.171030532568693" lon="6.17874532006681">
        <ele>49.189999999999998</ele>
        <time>2018-11-04T10:33:34Z</time>
      </trkpt>
      <trkpt lat="51.171017456799746" lon="6.178720761090517">
        <ele>49.189999999999998</ele>
        <time>2018-11-04T10:33:35Z</time>
      </trkpt>
      <trkpt lat="51.17100446484983" lon="6.178695112466812">
        <ele>49.18</ele>
        <time>2018-11-04T10:33:36Z</time>
      </trkpt>
      <trkpt lat="51.170989293605089" lon="6.178658483549953">
        <ele>49.18</ele>
        <time>2018-11-04T10:33:37Z</time>
      </trkpt>
      <trkpt lat="51.170969512313604" lon="6.178616993129253">
        <ele>49.170000000000002</ele>
        <time>2018-11-04T10:33:38Z</time>
      </trkpt>
      <trkpt lat="51.170851914212108" lon="6.17829043418169">
        <ele>49.140000000000001</ele>
        <time>2018-11-04T10:33:47Z</time>
      </trkpt>
      <trkpt lat="51.170831881463528" lon="6.178245507180691">
        <ele>49.130000000000003</ele>
        <time>2018-11-04T10:33:48Z</time>
      </trkpt>
      <trkpt lat="51.170722078531981" lon="6.177951972931624">
        <ele>49.079999999999998</ele>
        <time>2018-11-04T10:33:57Z</time>
      </trkpt>
      <trkpt lat="51.170714618638158" lon="6.177913751453161">
        <ele>49.07</ele>
        <time>2018-11-04T10:33:58Z</time>
      </trkpt>
      <trkpt lat="51.170703722164035" lon="6.177874775603414">
        <ele>49.079999999999998</ele>
        <time>2018-11-04T10:33:59Z</time>
      </trkpt>
      <trkpt lat="51.170532647520304" lon="6.177399018779397">
        <ele>49.020000000000003</ele>
        <time>2018-11-04T10:34:09Z</time>
      </trkpt>
      <trkpt lat="51.170388646423817" lon="6.176911192014813">
        <ele>48.960000000000001</ele>
        <time>2018-11-04T10:34:18Z</time>
      </trkpt>
      <trkpt lat="51.170352352783084" lon="6.176752606406808">
        <ele>51.299999999999997</ele>
        <time>2018-11-04T10:34:21Z</time>
      </trkpt>
      <trkpt lat="51.170263169333339" lon="6.176376845687628">
        <ele>51.229999999999997</ele>
        <time>2018-11-04T10:34:30Z</time>
      </trkpt>
      <trkpt lat="51.169980447739363" lon="6.175786424428225">
        <ele>51.079999999999998</ele>
        <time>2018-11-04T10:34:41Z</time>
      </trkpt>
      <trkpt lat="51.169854383915663" lon="6.175437904894352">
        <ele>51.009999999999998</ele>
        <time>2018-11-04T10:34:48Z</time>
      </trkpt>
      <trkpt lat="51.169821945950389" lon="6.175367413088679">
        <ele>51</ele>
        <time>2018-11-04T10:34:49Z</time>
      </trkpt>
      <trkpt lat="51.169807948172092" lon="6.175321061164141">
        <ele>50.990000000000002</ele>
        <time>2018-11-04T10:34:50Z</time>
      </trkpt>
      <trkpt lat="51.169794704765081" lon="6.175277223810554">
        <ele>50.979999999999997</ele>
        <time>2018-11-04T10:34:51Z</time>
      </trkpt>
      <trkpt lat="51.169783473014832" lon="6.175237409770489">
        <ele>50.979999999999997</ele>
        <time>2018-11-04T10:34:52Z</time>
      </trkpt>
      <trkpt lat="51.16976578719914" lon="6.175174796953797">
        <ele>50.969999999999999</ele>
        <time>2018-11-04T10:34:53Z</time>
      </trkpt>
      <trkpt lat="51.169746425002813" lon="6.17511042393744">
        <ele>50.960000000000001</ele>
        <time>2018-11-04T10:34:54Z</time>
      </trkpt>
      <trkpt lat="51.169724212959409" lon="6.175055773928762">
        <ele>50.950000000000003</ele>
        <time>2018-11-04T10:34:55Z</time>
      </trkpt>
      <trkpt lat="51.169695379212499" lon="6.174993915483356">
        <ele>50.939999999999998</ele>
        <time>2018-11-04T10:34:56Z</time>
      </trkpt>
      <trkpt lat="51.169651122763753" lon="6.174914203584194">
        <ele>50.939999999999998</ele>
        <time>2018-11-04T10:34:57Z</time>
      </trkpt>
      <trkpt lat="51.169598819687963" lon="6.174810435622931">
        <ele>50.93</ele>
        <time>2018-11-04T10:34:58Z</time>
      </trkpt>
      <trkpt lat="51.169572081416845" lon="6.174751091748476">
        <ele>50.920000000000002</ele>
        <time>2018-11-04T10:34:59Z</time>
      </trkpt>
      <trkpt lat="51.169541152194142" lon="6.174693256616592">
        <ele>50.909999999999997</ele>
        <time>2018-11-04T10:35:00Z</time>
      </trkpt>
      <trkpt lat="51.169289192184806" lon="6.174114821478725">
        <ele>50.829999999999998</ele>
        <time>2018-11-04T10:35:11Z</time>
      </trkpt>
      <trkpt lat="51.169087523594499" lon="6.173623474314809">
        <ele>50.759999999999998</ele>
        <time>2018-11-04T10:35:21Z</time>
      </trkpt>
      <trkpt lat="51.169041087850928" lon="6.173505960032344">
        <ele>50.719999999999999</ele>
        <time>2018-11-04T10:35:26Z</time>
      </trkpt>
      <trkpt lat="51.169018121436238" lon="6.17346178740263">
        <ele>50.710000000000001</ele>
        <time>2018-11-04T10:35:27Z</time>
      </trkpt>
      <trkpt lat="51.168999681249261" lon="6.173416608944535">
        <ele>50.710000000000001</ele>
        <time>2018-11-04T10:35:28Z</time>
      </trkpt>
      <trkpt lat="51.168973781168461" lon="6.173358522355557">
        <ele>50.700000000000003</ele>
        <time>2018-11-04T10:35:29Z</time>
      </trkpt>
      <trkpt lat="51.168956262990832" lon="6.173291634768248">
        <ele>50.710000000000001</ele>
        <time>2018-11-04T10:35:30Z</time>
      </trkpt>
      <trkpt lat="51.168940337374806" lon="6.173242432996631">
        <ele>50.68</ele>
        <time>2018-11-04T10:35:31Z</time>
      </trkpt>
      <trkpt lat="51.168921729549766" lon="6.173190046101809">
        <ele>50.689999999999998</ele>
        <time>2018-11-04T10:35:32Z</time>
      </trkpt>
      <trkpt lat="51.168902283534408" lon="6.173142101615667">
        <ele>50.710000000000001</ele>
        <time>2018-11-04T10:35:33Z</time>
      </trkpt>
      <trkpt lat="51.168884430080652" lon="6.173091055825353">
        <ele>50.710000000000001</ele>
        <time>2018-11-04T10:35:34Z</time>
      </trkpt>
      <trkpt lat="51.168844113126397" lon="6.173000782728195">
        <ele>50.700000000000003</ele>
        <time>2018-11-04T10:35:35Z</time>
      </trkpt>
      <trkpt lat="51.168808238580823" lon="6.172912772744894">
        <ele>50.689999999999998</ele>
        <time>2018-11-04T10:35:36Z</time>
      </trkpt>
      <trkpt lat="51.16878367960453" lon="6.172852171584964">
        <ele>50.689999999999998</ele>
        <time>2018-11-04T10:35:37Z</time>
      </trkpt>
      <trkpt lat="51.168757947161794" lon="6.172783775255084">
        <ele>50.68</ele>
        <time>2018-11-04T10:35:38Z</time>
      </trkpt>
      <trkpt lat="51.168556697666645" lon="6.172193940728903">
        <ele>51.530000000000001</ele>
        <time>2018-11-04T10:35:48Z</time>
      </trkpt>
      <trkpt lat="51.168381683528423" lon="6.171717513352633">
        <ele>51.439999999999998</ele>
        <time>2018-11-04T10:35:58Z</time>
      </trkpt>
      <trkpt lat="51.168215470388532" lon="6.171155003830791">
        <ele>51.299999999999997</ele>
        <time>2018-11-04T10:36:09Z</time>
      </trkpt>
      <trkpt lat="51.168075408786535" lon="6.170745883136988">
        <ele>48.880000000000003</ele>
        <time>2018-11-04T10:36:16Z</time>
      </trkpt>
      <trkpt lat="51.167889246717095" lon="6.170180607587099">
        <ele>48.93</ele>
        <time>2018-11-04T10:36:25Z</time>
      </trkpt>
      <trkpt lat="51.167700402438641" lon="6.169708874076605">
        <ele>48.840000000000003</ele>
        <time>2018-11-04T10:36:34Z</time>
      </trkpt>
      <trkpt lat="51.167459506541491" lon="6.168979061767459">
        <ele>48.799999999999997</ele>
        <time>2018-11-04T10:36:45Z</time>
      </trkpt>
      <trkpt lat="51.167180305346847" lon="6.168439434841275">
        <ele>48.719999999999999</ele>
        <time>2018-11-04T10:36:51Z</time>
      </trkpt>
      <trkpt lat="51.166937397792935" lon="6.167961163446307">
        <ele>48.579999999999998</ele>
        <time>2018-11-04T10:36:57Z</time>
      </trkpt>
      <trkpt lat="51.166758527979255" lon="6.167408628389239">
        <ele>48.460000000000001</ele>
        <time>2018-11-04T10:37:06Z</time>
      </trkpt>
      <trkpt lat="51.166517129167914" lon="6.166714774444699">
        <ele>48.369999999999997</ele>
        <time>2018-11-04T10:37:15Z</time>
      </trkpt>
      <trkpt lat="51.166233569383621" lon="6.165987560525537">
        <ele>48.289999999999999</ele>
        <time>2018-11-04T10:37:26Z</time>
      </trkpt>
      <trkpt lat="51.16606785915792" lon="6.165479868650436">
        <ele>48.289999999999999</ele>
        <time>2018-11-04T10:37:32Z</time>
      </trkpt>
      <trkpt lat="51.166034415364265" lon="6.165406694635749">
        <ele>48.25</ele>
        <time>2018-11-04T10:37:33Z</time>
      </trkpt>
      <trkpt lat="51.165722943842411" lon="6.164752403274179">
        <ele>48.130000000000003</ele>
        <time>2018-11-04T10:37:43Z</time>
      </trkpt>
      <trkpt lat="51.165668880566955" lon="6.16465374827385">
        <ele>51.149999999999999</ele>
        <time>2018-11-04T10:37:46Z</time>
      </trkpt>
      <trkpt lat="51.165648093447089" lon="6.164609994739294">
        <ele>51.140000000000001</ele>
        <time>2018-11-04T10:37:47Z</time>
      </trkpt>
      <trkpt lat="51.165477689355612" lon="6.164249321445823">
        <ele>51.100000000000001</ele>
        <time>2018-11-04T10:37:58Z</time>
      </trkpt>
      <trkpt lat="51.165304100140929" lon="6.16384556517005">
        <ele>51.920000000000002</ele>
        <time>2018-11-04T10:38:18Z</time>
      </trkpt>
      <trkpt lat="51.165218688547611" lon="6.163602657616139">
        <ele>51.869999999999997</ele>
        <time>2018-11-04T10:38:36Z</time>
      </trkpt>
      <trkpt lat="51.165158841758966" lon="6.163382045924664">
        <ele>51.850000000000001</ele>
        <time>2018-11-04T10:38:49Z</time>
      </trkpt>
      <trkpt lat="51.165057253092527" lon="6.163084320724011">
        <ele>51.770000000000003</ele>
        <time>2018-11-04T10:39:09Z</time>
      </trkpt>
      <trkpt lat="51.164818704128265" lon="6.162593560293317">
        <ele>51.640000000000001</ele>
        <time>2018-11-04T10:39:27Z</time>
      </trkpt>
      <trkpt lat="51.164781991392374" lon="6.162473447620869">
        <ele>51.590000000000003</ele>
        <time>2018-11-04T10:39:34Z</time>
      </trkpt>
      <trkpt lat="51.164762461557984" lon="6.162431789562106">
        <ele>51.590000000000003</ele>
        <time>2018-11-04T10:39:35Z</time>
      </trkpt>
      <trkpt lat="51.164732789620757" lon="6.162372445687652">
        <ele>51.590000000000003</ele>
        <time>2018-11-04T10:39:36Z</time>
      </trkpt>
      <trkpt lat="51.164686689153314" lon="6.162221068516374">
        <ele>51.530000000000001</ele>
        <time>2018-11-04T10:39:48Z</time>
      </trkpt>
      <trkpt lat="51.164591554552317" lon="6.161897778511047">
        <ele>51.420000000000002</ele>
        <time>2018-11-04T10:40:08Z</time>
      </trkpt>
      <trkpt lat="51.164421904832125" lon="6.161548169329763">
        <ele>51.340000000000003</ele>
        <time>2018-11-04T10:40:23Z</time>
      </trkpt>
      <trkpt lat="51.164295002818108" lon="6.161340130493045">
        <ele>51.270000000000003</ele>
        <time>2018-11-04T10:40:35Z</time>
      </trkpt>
      <trkpt lat="51.164213865995407" lon="6.161294281482697">
        <ele>51.240000000000002</ele>
        <time>2018-11-04T10:40:40Z</time>
      </trkpt>
      <trkpt lat="51.164148654788733" lon="6.161356475204229">
        <ele>51.18</ele>
        <time>2018-11-04T10:40:47Z</time>
      </trkpt>
      <trkpt lat="51.164140440523624" lon="6.161385225132108">
        <ele>51.18</ele>
        <time>2018-11-04T10:40:48Z</time>
      </trkpt>
      <trkpt lat="51.164055867120624" lon="6.161607513204217">
        <ele>51.850000000000001</ele>
        <time>2018-11-04T10:40:58Z</time>
      </trkpt>
      <trkpt lat="51.163880433887243" lon="6.161969779059291">
        <ele>51.619999999999997</ele>
        <time>2018-11-04T10:41:20Z</time>
      </trkpt>
      <trkpt lat="51.163666443899274" lon="6.162339085713029">
        <ele>52.390000000000001</ele>
        <time>2018-11-04T10:41:42Z</time>
      </trkpt>
      <trkpt lat="51.163546247407794" lon="6.162524912506342">
        <ele>52.119999999999997</ele>
        <time>2018-11-04T10:41:57Z</time>
      </trkpt>
      <trkpt lat="51.163367293775082" lon="6.162756672129035">
        <ele>51.880000000000003</ele>
        <time>2018-11-04T10:42:16Z</time>
      </trkpt>
      <trkpt lat="51.163153303787112" lon="6.163140060380101">
        <ele>51.509999999999998</ele>
        <time>2018-11-04T10:42:35Z</time>
      </trkpt>
      <trkpt lat="51.16306571289897" lon="6.163561753928661">
        <ele>51.170000000000002</ele>
        <time>2018-11-04T10:42:53Z</time>
      </trkpt>
      <trkpt lat="51.162939481437206" lon="6.164100961759687">
        <ele>50.869999999999997</ele>
        <time>2018-11-04T10:43:10Z</time>
      </trkpt>
      <trkpt lat="51.162817608565092" lon="6.164450822398067">
        <ele>50.609999999999999</ele>
        <time>2018-11-04T10:43:23Z</time>
      </trkpt>
      <trkpt lat="51.162787768989801" lon="6.164575377479196">
        <ele>50.520000000000003</ele>
        <time>2018-11-04T10:43:27Z</time>
      </trkpt>
      <trkpt lat="51.162777543067932" lon="6.16460295394063">
        <ele>50.479999999999997</ele>
        <time>2018-11-04T10:43:28Z</time>
      </trkpt>
      <trkpt lat="51.162684671580791" lon="6.164920041337609">
        <ele>50.210000000000001</ele>
        <time>2018-11-04T10:43:42Z</time>
      </trkpt>
      <trkpt lat="51.162678468972445" lon="6.164947785437107">
        <ele>50.189999999999998</ele>
        <time>2018-11-04T10:43:43Z</time>
      </trkpt>
      <trkpt lat="51.162669751793146" lon="6.164971254765987">
        <ele>50.159999999999997</ele>
        <time>2018-11-04T10:43:44Z</time>
      </trkpt>
      <trkpt lat="51.162534132599831" lon="6.16535447537899">
        <ele>49.880000000000003</ele>
        <time>2018-11-04T10:43:59Z</time>
      </trkpt>
      <trkpt lat="51.162425838410854" lon="6.165613057091832">
        <ele>49.520000000000003</ele>
        <time>2018-11-04T10:44:15Z</time>
      </trkpt>
      <trkpt lat="51.162323914468288" lon="6.165920002385974">
        <ele>49.189999999999998</ele>
        <time>2018-11-04T10:44:30Z</time>
      </trkpt>
      <trkpt lat="51.162193324416876" lon="6.166167855262756">
        <ele>48.939999999999998</ele>
        <time>2018-11-04T10:44:43Z</time>
      </trkpt>
      <trkpt lat="51.162074552848935" lon="6.166474213823676">
        <ele>48.649999999999999</ele>
        <time>2018-11-04T10:44:57Z</time>
      </trkpt>
      <trkpt lat="51.161931222304702" lon="6.166639253497124">
        <ele>48.520000000000003</ele>
        <time>2018-11-04T10:45:03Z</time>
      </trkpt>
      <trkpt lat="51.161919655278325" lon="6.166658783331513">
        <ele>48.5</ele>
        <time>2018-11-04T10:45:04Z</time>
      </trkpt>
      <trkpt lat="51.161910267546773" lon="6.166691975668073">
        <ele>48.469999999999999</ele>
        <time>2018-11-04T10:45:05Z</time>
      </trkpt>
      <trkpt lat="51.161874309182167" lon="6.166759617626667">
        <ele>46.149999999999999</ele>
        <time>2018-11-04T10:45:07Z</time>
      </trkpt>
      <trkpt lat="51.161696361377835" lon="6.167110903188586">
        <ele>45.960000000000001</ele>
        <time>2018-11-04T10:45:22Z</time>
      </trkpt>
      <trkpt lat="51.161516904830933" lon="6.167488591745496">
        <ele>45.850000000000001</ele>
        <time>2018-11-04T10:45:34Z</time>
      </trkpt>
      <trkpt lat="51.161409029737115" lon="6.167779611423612">
        <ele>45.780000000000001</ele>
        <time>2018-11-04T10:45:47Z</time>
      </trkpt>
      <trkpt lat="51.161270393058658" lon="6.168163754045963">
        <ele>45.75</ele>
        <time>2018-11-04T10:46:07Z</time>
      </trkpt>
      <trkpt lat="51.161147262901068" lon="6.168537000194192">
        <ele>45.789999999999999</ele>
        <time>2018-11-04T10:46:25Z</time>
      </trkpt>
      <trkpt lat="51.161017091944814" lon="6.168926171958447">
        <ele>45.850000000000001</ele>
        <time>2018-11-04T10:46:40Z</time>
      </trkpt>
      <trkpt lat="51.160896895453334" lon="6.169209145009518">
        <ele>45.93</ele>
        <time>2018-11-04T10:46:55Z</time>
      </trkpt>
      <trkpt lat="51.160753816366196" lon="6.16955473087728">
        <ele>46</ele>
        <time>2018-11-04T10:47:14Z</time>
      </trkpt>
      <trkpt lat="51.160611910745502" lon="6.169791268184781">
        <ele>46.07</ele>
        <time>2018-11-04T10:47:32Z</time>
      </trkpt>
      <trkpt lat="51.160419881343842" lon="6.170333074405789">
        <ele>46</ele>
        <time>2018-11-04T10:47:53Z</time>
      </trkpt>
      <trkpt lat="51.160296415910125" lon="6.170678995549679">
        <ele>46.07</ele>
        <time>2018-11-04T10:48:07Z</time>
      </trkpt>
      <trkpt lat="51.160131208598614" lon="6.171045871451497">
        <ele>46.049999999999997</ele>
        <time>2018-11-04T10:48:19Z</time>
      </trkpt>
      <trkpt lat="51.160100949928164" lon="6.171092810109258">
        <ele>46.060000000000002</ele>
        <time>2018-11-04T10:48:22Z</time>
      </trkpt>
      <trkpt lat="51.159955859184265" lon="6.171419704332948">
        <ele>46.060000000000002</ele>
        <time>2018-11-04T10:48:39Z</time>
      </trkpt>
      <trkpt lat="51.159777827560902" lon="6.171986320987344">
        <ele>46.079999999999998</ele>
        <time>2018-11-04T10:49:01Z</time>
      </trkpt>
      <trkpt lat="51.159765506163239" lon="6.172010377049446">
        <ele>46.090000000000003</ele>
        <time>2018-11-04T10:49:02Z</time>
      </trkpt>
      <trkpt lat="51.159754609689116" lon="6.172042395919561">
        <ele>46.090000000000003</ele>
        <time>2018-11-04T10:49:03Z</time>
      </trkpt>
      <trkpt lat="51.159747317433357" lon="6.172076258808374">
        <ele>46.090000000000003</ele>
        <time>2018-11-04T10:49:04Z</time>
      </trkpt>
      <trkpt lat="51.159739354625344" lon="6.172104086726904">
        <ele>46.079999999999998</ele>
        <time>2018-11-04T10:49:05Z</time>
      </trkpt>
      <trkpt lat="51.159728458151221" lon="6.172128226608038">
        <ele>46.090000000000003</ele>
        <time>2018-11-04T10:49:06Z</time>
      </trkpt>
      <trkpt lat="51.159721584990621" lon="6.172164771705866">
        <ele>46.100000000000001</ele>
        <time>2018-11-04T10:49:07Z</time>
      </trkpt>
      <trkpt lat="51.159673305228353" lon="6.172391250729561">
        <ele>51</ele>
        <time>2018-11-04T10:49:14Z</time>
      </trkpt>
      <trkpt lat="51.159668359905481" lon="6.172425197437406">
        <ele>48.380000000000003</ele>
        <time>2018-11-04T10:49:15Z</time>
      </trkpt>
      <trkpt lat="51.159550342708826" lon="6.172670451924205">
        <ele>47.299999999999997</ele>
        <time>2018-11-04T10:49:29Z</time>
      </trkpt>
      <trkpt lat="51.159418243914843" lon="6.172957113012672">
        <ele>47.369999999999997</ele>
        <time>2018-11-04T10:49:46Z</time>
      </trkpt>
      <trkpt lat="51.159280529245734" lon="6.173424907028675">
        <ele>47.43</ele>
        <time>2018-11-04T10:50:08Z</time>
      </trkpt>
      <trkpt lat="51.15927591919899" lon="6.17346178740263">
        <ele>47.420000000000002</ele>
        <time>2018-11-04T10:50:09Z</time>
      </trkpt>
      <trkpt lat="51.15927005186677" lon="6.173482742160559">
        <ele>47.439999999999998</ele>
        <time>2018-11-04T10:50:10Z</time>
      </trkpt>
      <trkpt lat="51.159195117652416" lon="6.173604112118483">
        <ele>47.450000000000003</ele>
        <time>2018-11-04T10:50:17Z</time>
      </trkpt>
      <trkpt lat="51.159186735749245" lon="6.173635208979249">
        <ele>47.450000000000003</ele>
        <time>2018-11-04T10:50:18Z</time>
      </trkpt>
      <trkpt lat="51.159180449321866" lon="6.173668066039681">
        <ele>47.409999999999997</ele>
        <time>2018-11-04T10:50:19Z</time>
      </trkpt>
      <trkpt lat="51.15917575545609" lon="6.173687847331166">
        <ele>47.450000000000003</ele>
        <time>2018-11-04T10:50:20Z</time>
      </trkpt>
      <trkpt lat="51.159166367724538" lon="6.173711568117142">
        <ele>47.439999999999998</ele>
        <time>2018-11-04T10:50:21Z</time>
      </trkpt>
      <trkpt lat="51.159159410744905" lon="6.173741826787591">
        <ele>47.43</ele>
        <time>2018-11-04T10:50:22Z</time>
      </trkpt>
      <trkpt lat="51.159145664423704" lon="6.173763703554869">
        <ele>47.420000000000002</ele>
        <time>2018-11-04T10:50:23Z</time>
      </trkpt>
      <trkpt lat="51.159138036891818" lon="6.173787843436003">
        <ele>47.409999999999997</ele>
        <time>2018-11-04T10:50:24Z</time>
      </trkpt>
      <trkpt lat="51.159132588654757" lon="6.17382631637156">
        <ele>47.409999999999997</ele>
        <time>2018-11-04T10:50:25Z</time>
      </trkpt>
      <trkpt lat="51.159121273085475" lon="6.173847354948521">
        <ele>47.409999999999997</ele>
        <time>2018-11-04T10:50:26Z</time>
      </trkpt>
      <trkpt lat="51.159109035506845" lon="6.173868980258703">
        <ele>47.409999999999997</ele>
        <time>2018-11-04T10:50:27Z</time>
      </trkpt>
      <trkpt lat="51.159101240336895" lon="6.173893455415964">
        <ele>47.409999999999997</ele>
        <time>2018-11-04T10:50:28Z</time>
      </trkpt>
      <trkpt lat="51.159090595319867" lon="6.173914577811956">
        <ele>47.409999999999997</ele>
        <time>2018-11-04T10:50:29Z</time>
      </trkpt>
      <trkpt lat="51.15902722813189" lon="6.17420744150877">
        <ele>46.630000000000003</ele>
        <time>2018-11-04T10:50:42Z</time>
      </trkpt>
      <trkpt lat="51.15899789147079" lon="6.174326799809933">
        <ele>46.659999999999997</ele>
        <time>2018-11-04T10:50:47Z</time>
      </trkpt>
      <trkpt lat="51.158995879814029" lon="6.174348928034306">
        <ele>46.649999999999999</ele>
        <time>2018-11-04T10:50:48Z</time>
      </trkpt>
      <trkpt lat="51.158993449062109" lon="6.174372816458345">
        <ele>46.640000000000001</ele>
        <time>2018-11-04T10:50:49Z</time>
      </trkpt>
      <trkpt lat="51.158987078815699" lon="6.174392933025956">
        <ele>46.649999999999999</ele>
        <time>2018-11-04T10:50:50Z</time>
      </trkpt>
      <trkpt lat="51.158982636407018" lon="6.174407936632633">
        <ele>46.659999999999997</ele>
        <time>2018-11-04T10:50:51Z</time>
      </trkpt>
      <trkpt lat="51.158948773518205" lon="6.17476056329906">
        <ele>46.719999999999999</ele>
        <time>2018-11-04T10:51:08Z</time>
      </trkpt>
      <trkpt lat="51.158874006941915" lon="6.175185441970825">
        <ele>45.880000000000003</ele>
        <time>2018-11-04T10:51:31Z</time>
      </trkpt>
      <trkpt lat="51.158753475174308" lon="6.175600429996848">
        <ele>44.039999999999999</ele>
        <time>2018-11-04T10:51:47Z</time>
      </trkpt>
      <trkpt lat="51.158572761341929" lon="6.175808636471629">
        <ele>42.149999999999999</ele>
        <time>2018-11-04T10:52:05Z</time>
      </trkpt>
      <trkpt lat="51.158359106630087" lon="6.175765972584486">
        <ele>41.340000000000003</ele>
        <time>2018-11-04T10:52:27Z</time>
      </trkpt>
      <trkpt lat="51.15813304670155" lon="6.175625324249268">
        <ele>39.369999999999997</ele>
        <time>2018-11-04T10:52:45Z</time>
      </trkpt>
      <trkpt lat="51.158079737797379" lon="6.17557218298316">
        <ele>39.329999999999998</ele>
        <time>2018-11-04T10:52:48Z</time>
      </trkpt>
      <trkpt lat="51.157829705625772" lon="6.175366155803204">
        <ele>39.149999999999999</ele>
        <time>2018-11-04T10:53:10Z</time>
      </trkpt>
      <trkpt lat="51.157797183841467" lon="6.175373699516058">
        <ele>37.490000000000002</ele>
        <time>2018-11-04T10:53:12Z</time>
      </trkpt>
      <trkpt lat="51.157759968191385" lon="6.175378393381834">
        <ele>40</ele>
        <time>2018-11-04T10:53:17Z</time>
      </trkpt>
      <trkpt lat="51.157738426700234" lon="6.175368502736092">
        <ele>37.469999999999999</ele>
        <time>2018-11-04T10:53:19Z</time>
      </trkpt>
      <trkpt lat="51.157507840543985" lon="6.175216203555465">
        <ele>36.479999999999997</ele>
        <time>2018-11-04T10:53:38Z</time>
      </trkpt>
      <trkpt lat="51.157320840284228" lon="6.174952508881688">
        <ele>34.619999999999997</ele>
        <time>2018-11-04T10:54:01Z</time>
      </trkpt>
      <trkpt lat="51.157276835292578" lon="6.174782942980528">
        <ele>34.369999999999997</ele>
        <time>2018-11-04T10:54:13Z</time>
      </trkpt>
      <trkpt lat="51.157268704846501" lon="6.174756707623601">
        <ele>34.340000000000003</ele>
        <time>2018-11-04T10:54:14Z</time>
      </trkpt>
      <trkpt lat="51.157158734276891" lon="6.174321183934808">
        <ele>32.979999999999997</ele>
        <time>2018-11-04T10:54:34Z</time>
      </trkpt>
      <trkpt lat="51.15708782337606" lon="6.173947183415294">
        <ele>31.52</ele>
        <time>2018-11-04T10:54:55Z</time>
      </trkpt>
      <trkpt lat="51.157014397904277" lon="6.173521550372243">
        <ele>30.09</ele>
        <time>2018-11-04T10:55:17Z</time>
      </trkpt>
      <trkpt lat="51.156861176714301" lon="6.17311486043036">
        <ele>29.41</ele>
        <time>2018-11-04T10:55:37Z</time>
      </trkpt>
      <trkpt lat="51.156619191169739" lon="6.172711607068777">
        <ele>27.77</ele>
        <time>2018-11-04T10:55:52Z</time>
      </trkpt>
      <trkpt lat="51.156474770978093" lon="6.172484206035733">
        <ele>27.460000000000001</ele>
        <time>2018-11-04T10:56:05Z</time>
      </trkpt>
      <trkpt lat="51.156351305544376" lon="6.17227784357965">
        <ele>25.98</ele>
        <time>2018-11-04T10:56:25Z</time>
      </trkpt>
      <trkpt lat="51.156153995543718" lon="6.171880457550287">
        <ele>24.469999999999999</ele>
        <time>2018-11-04T10:56:43Z</time>
      </trkpt>
      <trkpt lat="51.156016951426864" lon="6.171604944393039">
        <ele>24.059999999999999</ele>
        <time>2018-11-04T10:56:57Z</time>
      </trkpt>
      <trkpt lat="51.15585358813405" lon="6.171304704621434">
        <ele>22.789999999999999</ele>
        <time>2018-11-04T10:57:12Z</time>
      </trkpt>
      <trkpt lat="51.155711431056261" lon="6.171050481498241">
        <ele>22.469999999999999</ele>
        <time>2018-11-04T10:57:25Z</time>
      </trkpt>
      <trkpt lat="51.15558092482388" lon="6.170770190656185">
        <ele>22.059999999999999</ele>
        <time>2018-11-04T10:57:41Z</time>
      </trkpt>
      <trkpt lat="51.155478078871965" lon="6.170371547341347">
        <ele>20.809999999999999</ele>
        <time>2018-11-04T10:58:02Z</time>
      </trkpt>
      <trkpt lat="51.155298454686999" lon="6.169970892369747">
        <ele>20.280000000000001</ele>
        <time>2018-11-04T10:58:23Z</time>
      </trkpt>
      <trkpt lat="51.155115645378828" lon="6.169477198272944">
        <ele>18.969999999999999</ele>
        <time>2018-11-04T10:58:44Z</time>
      </trkpt>
      <trkpt lat="51.155070383101702" lon="6.169357504695654">
        <ele>16.82</ele>
        <time>2018-11-04T10:58:49Z</time>
      </trkpt>
      <trkpt lat="51.155057894065976" lon="6.169312410056591">
        <ele>19.510000000000002</ele>
        <time>2018-11-04T10:58:51Z</time>
      </trkpt>
      <trkpt lat="51.154857482761145" lon="6.168921645730734">
        <ele>19.350000000000001</ele>
        <time>2018-11-04T10:59:06Z</time>
      </trkpt>
      <trkpt lat="51.154680959880352" lon="6.168521409854293">
        <ele>19.23</ele>
        <time>2018-11-04T10:59:22Z</time>
      </trkpt>
      <trkpt lat="51.154565373435616" lon="6.168295266106725">
        <ele>19.219999999999999</ele>
        <time>2018-11-04T10:59:33Z</time>
      </trkpt>
      <trkpt lat="51.154438387602568" lon="6.168004497885704">
        <ele>19.18</ele>
        <time>2018-11-04T10:59:48Z</time>
      </trkpt>
      <trkpt lat="51.154302014037967" lon="6.167663019150496">
        <ele>19.149999999999999</ele>
        <time>2018-11-04T11:00:03Z</time>
      </trkpt>
      <trkpt lat="51.1541189532727" lon="6.167296310886741">
        <ele>19.170000000000002</ele>
        <time>2018-11-04T11:00:21Z</time>
      </trkpt>
      <trkpt lat="51.15393714979291" lon="6.166902780532837">
        <ele>19.210000000000001</ele>
        <time>2018-11-04T11:00:40Z</time>
      </trkpt>
      <trkpt lat="51.153682004660368" lon="6.166524840518832">
        <ele>19.329999999999998</ele>
        <time>2018-11-04T11:00:56Z</time>
      </trkpt>
      <trkpt lat="51.15348276682198" lon="6.166281765326858">
        <ele>19.449999999999999</ele>
        <time>2018-11-04T11:01:12Z</time>
      </trkpt>
      <trkpt lat="51.153307501226664" lon="6.166165256872773">
        <ele>19.579999999999998</ele>
        <time>2018-11-04T11:01:23Z</time>
      </trkpt>
      <trkpt lat="51.153217311948538" lon="6.166072804480791">
        <ele>19.629999999999999</ele>
        <time>2018-11-04T11:01:27Z</time>
      </trkpt>
      <trkpt lat="51.153193172067404" lon="6.166053442284465">
        <ele>19.640000000000001</ele>
        <time>2018-11-04T11:01:28Z</time>
      </trkpt>
      <trkpt lat="51.153043638914824" lon="6.165922349318862">
        <ele>19.82</ele>
        <time>2018-11-04T11:01:41Z</time>
      </trkpt>
      <trkpt lat="51.152898883447051" lon="6.165800392627716">
        <ele>20.050000000000001</ele>
        <time>2018-11-04T11:01:54Z</time>
      </trkpt>
      <trkpt lat="51.152665950357914" lon="6.165623534470797">
        <ele>20.27</ele>
        <time>2018-11-04T11:02:13Z</time>
      </trkpt>
      <trkpt lat="51.152432933449745" lon="6.165562430396676">
        <ele>20.489999999999998</ele>
        <time>2018-11-04T11:02:34Z</time>
      </trkpt>
      <trkpt lat="51.152407955378294" lon="6.165582798421383">
        <ele>20.48</ele>
        <time>2018-11-04T11:02:36Z</time>
      </trkpt>
      <trkpt lat="51.152395298704505" lon="6.165593862533569">
        <ele>20.5</ele>
        <time>2018-11-04T11:02:37Z</time>
      </trkpt>
      <trkpt lat="51.152158509939909" lon="6.165753956884146">
        <ele>20.59</ele>
        <time>2018-11-04T11:02:52Z</time>
      </trkpt>
      <trkpt lat="51.151990536600351" lon="6.165775582194328">
        <ele>20.640000000000001</ele>
        <time>2018-11-04T11:03:03Z</time>
      </trkpt>
      <trkpt lat="51.151734720915556" lon="6.165854204446077">
        <ele>20.670000000000002</ele>
        <time>2018-11-04T11:03:16Z</time>
      </trkpt>
      <trkpt lat="51.151710916310549" lon="6.165853952988982">
        <ele>20.690000000000001</ele>
        <time>2018-11-04T11:03:17Z</time>
      </trkpt>
      <trkpt lat="51.151689626276493" lon="6.165848840028048">
        <ele>20.670000000000002</ele>
        <time>2018-11-04T11:03:18Z</time>
      </trkpt>
      <trkpt lat="51.151665570214391" lon="6.165843475610018">
        <ele>20.670000000000002</ele>
        <time>2018-11-04T11:03:19Z</time>
      </trkpt>
      <trkpt lat="51.151642603799701" lon="6.165833249688149">
        <ele>20.710000000000001</ele>
        <time>2018-11-04T11:03:20Z</time>
      </trkpt>
      <trkpt lat="51.151624582707882" lon="6.165827382355928">
        <ele>20.710000000000001</ele>
        <time>2018-11-04T11:03:21Z</time>
      </trkpt>
      <trkpt lat="51.151610082015395" lon="6.165829561650753">
        <ele>20.73</ele>
        <time>2018-11-04T11:03:22Z</time>
      </trkpt>
      <trkpt lat="51.15159859880805" lon="6.165837273001671">
        <ele>20.73</ele>
        <time>2018-11-04T11:03:23Z</time>
      </trkpt>
      <trkpt lat="51.15158686414361" lon="6.165848085656762">
        <ele>20.739999999999998</ele>
        <time>2018-11-04T11:03:24Z</time>
      </trkpt>
      <trkpt lat="51.151574375107884" lon="6.165853952988982">
        <ele>20.739999999999998</ele>
        <time>2018-11-04T11:03:25Z</time>
      </trkpt>
      <trkpt lat="51.151348315179348" lon="6.165971467271447">
        <ele>20.870000000000001</ele>
        <time>2018-11-04T11:03:42Z</time>
      </trkpt>
      <trkpt lat="51.151118483394384" lon="6.166001055389643">
        <ele>20.960000000000001</ele>
        <time>2018-11-04T11:03:58Z</time>
      </trkpt>
      <trkpt lat="51.151074394583702" lon="6.165990242734551">
        <ele>18.489999999999998</ele>
        <time>2018-11-04T11:04:02Z</time>
      </trkpt>
      <trkpt lat="51.15097071044147" lon="6.165910782292485">
        <ele>18.699999999999999</ele>
        <time>2018-11-04T11:04:19Z</time>
      </trkpt>
      <trkpt lat="51.150856129825115" lon="6.165830316022039">
        <ele>19.010000000000002</ele>
        <time>2018-11-04T11:04:31Z</time>
      </trkpt>
      <trkpt lat="51.15073325112462" lon="6.165633089840412">
        <ele>19.129999999999999</ele>
        <time>2018-11-04T11:04:44Z</time>
      </trkpt>
      <trkpt lat="51.150719253346324" lon="6.165592102333903">
        <ele>19.149999999999999</ele>
        <time>2018-11-04T11:04:46Z</time>
      </trkpt>
      <trkpt lat="51.150718331336975" lon="6.165571650490165">
        <ele>19.16</ele>
        <time>2018-11-04T11:04:47Z</time>
      </trkpt>
      <trkpt lat="51.150720929726958" lon="6.165536195039749">
        <ele>16.890000000000001</ele>
        <time>2018-11-04T11:04:50Z</time>
      </trkpt>
      <trkpt lat="51.150730233639479" lon="6.165489926934242">
        <ele>16.899999999999999</ele>
        <time>2018-11-04T11:04:53Z</time>
      </trkpt>
      <trkpt lat="51.150748338550329" lon="6.165418680757284">
        <ele>14.220000000000001</ele>
        <time>2018-11-04T11:04:57Z</time>
      </trkpt>
      <trkpt lat="51.150754541158676" lon="6.165380124002695">
        <ele>17.390000000000001</ele>
        <time>2018-11-04T11:04:59Z</time>
      </trkpt>
      <trkpt lat="51.150758396834135" lon="6.165367886424065">
        <ele>17.379999999999999</ele>
        <time>2018-11-04T11:05:00Z</time>
      </trkpt>
      <trkpt lat="51.150823859497905" lon="6.16522304713726">
        <ele>14.83</ele>
        <time>2018-11-04T11:05:11Z</time>
      </trkpt>
      <trkpt lat="51.151034077629447" lon="6.164940744638443">
        <ele>15</ele>
        <time>2018-11-04T11:05:33Z</time>
      </trkpt>
      <trkpt lat="51.151134073734283" lon="6.164702950045466">
        <ele>14.199999999999999</ele>
        <time>2018-11-04T11:05:43Z</time>
      </trkpt>
      <trkpt lat="51.151273045688868" lon="6.164383012801409">
        <ele>14.210000000000001</ele>
        <time>2018-11-04T11:05:54Z</time>
      </trkpt>
      <trkpt lat="51.151402210816741" lon="6.164219062775374">
        <ele>14.19</ele>
        <time>2018-11-04T11:06:04Z</time>
      </trkpt>
      <trkpt lat="51.151416460052133" lon="6.164212860167027">
        <ele>14.19</ele>
        <time>2018-11-04T11:06:05Z</time>
      </trkpt>
      <trkpt lat="51.151546211913228" lon="6.163995265960693">
        <ele>14.09</ele>
        <time>2018-11-04T11:06:16Z</time>
      </trkpt>
      <trkpt lat="51.151700438931584" lon="6.163866687566042">
        <ele>13.99</ele>
        <time>2018-11-04T11:06:27Z</time>
      </trkpt>
      <trkpt lat="51.151744779199362" lon="6.163796279579401">
        <ele>13.94</ele>
        <time>2018-11-04T11:06:31Z</time>
      </trkpt>
      <trkpt lat="51.151763806119561" lon="6.163730816915631">
        <ele>13.890000000000001</ele>
        <time>2018-11-04T11:06:34Z</time>
      </trkpt>
      <trkpt lat="51.151827508583665" lon="6.163657391443849">
        <ele>13.800000000000001</ele>
        <time>2018-11-04T11:06:39Z</time>
      </trkpt>
      <trkpt lat="51.151966648176312" lon="6.163509031757712">
        <ele>13.43</ele>
        <time>2018-11-04T11:06:52Z</time>
      </trkpt>
      <trkpt lat="51.15217661485076" lon="6.163158835843206">
        <ele>12.779999999999999</ele>
        <time>2018-11-04T11:07:13Z</time>
      </trkpt>
      <trkpt lat="51.152326986193657" lon="6.162937134504318">
        <ele>12.380000000000001</ele>
        <time>2018-11-04T11:07:25Z</time>
      </trkpt>
      <trkpt lat="51.152451038360596" lon="6.162799503654242">
        <ele>12.07</ele>
        <time>2018-11-04T11:07:35Z</time>
      </trkpt>
      <trkpt lat="51.15253334864974" lon="6.16249498911202">
        <ele>14.029999999999999</ele>
        <time>2018-11-04T11:07:47Z</time>
      </trkpt>
      <trkpt lat="51.152641139924526" lon="6.162157449871302">
        <ele>13.48</ele>
        <time>2018-11-04T11:08:03Z</time>
      </trkpt>
      <trkpt lat="51.15273711271584" lon="6.161751514300704">
        <ele>13.44</ele>
        <time>2018-11-04T11:08:25Z</time>
      </trkpt>
      <trkpt lat="51.152794444933534" lon="6.161257149651647">
        <ele>13.800000000000001</ele>
        <time>2018-11-04T11:08:39Z</time>
      </trkpt>
      <trkpt lat="51.152661759406328" lon="6.160857500508428">
        <ele>14.210000000000001</ele>
        <time>2018-11-04T11:08:55Z</time>
      </trkpt>
      <trkpt lat="51.152466712519526" lon="6.160523146390915">
        <ele>14.73</ele>
        <time>2018-11-04T11:09:09Z</time>
      </trkpt>
      <trkpt lat="51.152419941499829" lon="6.160420551896095">
        <ele>14.69</ele>
        <time>2018-11-04T11:09:13Z</time>
      </trkpt>
      <trkpt lat="51.152314245700836" lon="6.160175800323486">
        <ele>14.609999999999999</ele>
        <time>2018-11-04T11:09:24Z</time>
      </trkpt>
      <trkpt lat="51.152271078899503" lon="6.159964073449373">
        <ele>14.56</ele>
        <time>2018-11-04T11:09:33Z</time>
      </trkpt>
      <trkpt lat="51.152195977047086" lon="6.159676574170589">
        <ele>16.149999999999999</ele>
        <time>2018-11-04T11:09:45Z</time>
      </trkpt>
      <trkpt lat="51.152132442221045" lon="6.159504996612668">
        <ele>16.129999999999999</ele>
        <time>2018-11-04T11:09:53Z</time>
      </trkpt>
      <trkpt lat="51.151986513286829" lon="6.159101240336895">
        <ele>16.079999999999998</ele>
        <time>2018-11-04T11:10:10Z</time>
      </trkpt>
      <trkpt lat="51.151888947933912" lon="6.158865205943584">
        <ele>16.07</ele>
        <time>2018-11-04T11:10:22Z</time>
      </trkpt>
      <trkpt lat="51.151837315410376" lon="6.158765377476811">
        <ele>16.170000000000002</ele>
        <time>2018-11-04T11:10:29Z</time>
      </trkpt>
      <trkpt lat="51.151610584929585" lon="6.158505203202367">
        <ele>16.199999999999999</ele>
        <time>2018-11-04T11:10:44Z</time>
      </trkpt>
      <trkpt lat="51.151496591046453" lon="6.158280735835433">
        <ele>13.84</ele>
        <time>2018-11-04T11:10:56Z</time>
      </trkpt>
      <trkpt lat="51.151379160583019" lon="6.158014023676515">
        <ele>13.119999999999999</ele>
        <time>2018-11-04T11:11:08Z</time>
      </trkpt>
      <trkpt lat="51.151309004053473" lon="6.157705988734961">
        <ele>13.210000000000001</ele>
        <time>2018-11-04T11:11:22Z</time>
      </trkpt>
      <trkpt lat="51.151252007111907" lon="6.157440450042486">
        <ele>13.27</ele>
        <time>2018-11-04T11:11:35Z</time>
      </trkpt>
      <trkpt lat="51.15120037458837" lon="6.157247414812446">
        <ele>13.31</ele>
        <time>2018-11-04T11:11:44Z</time>
      </trkpt>
      <trkpt lat="51.151141198351979" lon="6.156870480626822">
        <ele>13.42</ele>
        <time>2018-11-04T11:11:58Z</time>
      </trkpt>
      <trkpt lat="51.151106329634786" lon="6.156589686870575">
        <ele>13.52</ele>
        <time>2018-11-04T11:12:09Z</time>
      </trkpt>
      <trkpt lat="51.151067856699228" lon="6.156257512047887">
        <ele>13.630000000000001</ele>
        <time>2018-11-04T11:12:23Z</time>
      </trkpt>
      <trkpt lat="51.151020079851151" lon="6.155937323346734">
        <ele>13.710000000000001</ele>
        <time>2018-11-04T11:12:38Z</time>
      </trkpt>
      <trkpt lat="51.151155782863498" lon="6.155843026936054">
        <ele>13.84</ele>
        <time>2018-11-04T11:12:55Z</time>
      </trkpt>
      <trkpt lat="51.151318224146962" lon="6.15562685765326">
        <ele>13.91</ele>
        <time>2018-11-04T11:13:17Z</time>
      </trkpt>
      <trkpt lat="51.151347141712904" lon="6.155558880418539">
        <ele>16.52</ele>
        <time>2018-11-04T11:13:28Z</time>
      </trkpt>
      <trkpt lat="51.151408916339278" lon="6.155594335868955">
        <ele>16.760000000000002</ele>
        <time>2018-11-04T11:13:49Z</time>
      </trkpt>
      <trkpt lat="51.151405982673168" lon="6.155605148524046">
        <ele>14.130000000000001</ele>
        <time>2018-11-04T11:13:55Z</time>
      </trkpt>
      <trkpt lat="51.151392487809062" lon="6.155618894845247">
        <ele>18.289999999999999</ele>
        <time>2018-11-04T11:14:03Z</time>
      </trkpt>
      <trkpt lat="51.151384189724922" lon="6.155610177665949">
        <ele>18.25</ele>
        <time>2018-11-04T11:14:04Z</time>
      </trkpt>
      <trkpt lat="51.151383938267827" lon="6.15560875274241">
        <ele>15.68</ele>
        <time>2018-11-04T11:14:06Z</time>
      </trkpt>
      <trkpt lat="51.151371030136943" lon="6.155659547075629">
        <ele>15.98</ele>
        <time>2018-11-04T11:14:26Z</time>
      </trkpt>
      <trkpt lat="51.151416292414069" lon="6.155579332262278">
        <ele>16.190000000000001</ele>
        <time>2018-11-04T11:14:41Z</time>
      </trkpt>
      <trkpt lat="51.151443449780345" lon="6.155547983944416">
        <ele>16.559999999999999</ele>
        <time>2018-11-04T11:15:04Z</time>
      </trkpt>
      <trkpt lat="51.151437498629093" lon="6.155577069148421">
        <ele>13.23</ele>
        <time>2018-11-04T11:15:14Z</time>
      </trkpt>
      <trkpt lat="51.151437414810061" lon="6.155574806034565">
        <ele>13.25</ele>
        <time>2018-11-04T11:15:15Z</time>
      </trkpt>
      <trkpt lat="51.151436828076839" lon="6.155571788549423">
        <ele>18.530000000000001</ele>
        <time>2018-11-04T11:15:16Z</time>
      </trkpt>
      <trkpt lat="51.151434229686856" lon="6.155567849054933">
        <ele>13.52</ele>
        <time>2018-11-04T11:15:17Z</time>
      </trkpt>
      <trkpt lat="51.151432553306222" lon="6.155565921217203">
        <ele>19.710000000000001</ele>
        <time>2018-11-04T11:15:18Z</time>
      </trkpt>
      <trkpt lat="51.151419561356306" lon="6.155605399981141">
        <ele>16.77</ele>
        <time>2018-11-04T11:15:22Z</time>
      </trkpt>
      <trkpt lat="51.151392655447125" lon="6.155668096616864">
        <ele>17.260000000000002</ele>
        <time>2018-11-04T11:15:41Z</time>
      </trkpt>
      <trkpt lat="51.151348566636443" lon="6.155672203749418">
        <ele>17.510000000000002</ele>
        <time>2018-11-04T11:15:55Z</time>
      </trkpt>
      <trkpt lat="51.151371533051133" lon="6.155687961727381">
        <ele>17.890000000000001</ele>
        <time>2018-11-04T11:16:19Z</time>
      </trkpt>
      <trkpt lat="51.151368683204055" lon="6.155735570937395">
        <ele>18.300000000000001</ele>
        <time>2018-11-04T11:16:44Z</time>
      </trkpt>
      <trkpt lat="51.151364659890532" lon="6.155708748847246">
        <ele>18.57</ele>
        <time>2018-11-04T11:17:01Z</time>
      </trkpt>
      <trkpt lat="51.15140900015831" lon="6.155666336417198">
        <ele>20.73</ele>
        <time>2018-11-04T11:17:06Z</time>
      </trkpt>
      <trkpt lat="51.15140120498836" lon="6.155609088018537">
        <ele>20.57</ele>
        <time>2018-11-04T11:17:21Z</time>
      </trkpt>
      <trkpt lat="51.151374382898211" lon="6.155652003362775">
        <ele>19.699999999999999</ele>
        <time>2018-11-04T11:17:33Z</time>
      </trkpt>
      <trkpt lat="51.15142023190856" lon="6.155535914003849">
        <ele>18.84</ele>
        <time>2018-11-04T11:17:53Z</time>
      </trkpt>
      <trkpt lat="51.151453005149961" lon="6.155587378889322">
        <ele>19</ele>
        <time>2018-11-04T11:18:08Z</time>
      </trkpt>
      <trkpt lat="51.151431547477841" lon="6.155730457976461">
        <ele>19.289999999999999</ele>
        <time>2018-11-04T11:18:27Z</time>
      </trkpt>
      <trkpt lat="51.151483515277505" lon="6.155665414407849">
        <ele>19.57</ele>
        <time>2018-11-04T11:18:48Z</time>
      </trkpt>
      <trkpt lat="51.151405228301883" lon="6.155618224292994">
        <ele>19.879999999999999</ele>
        <time>2018-11-04T11:19:14Z</time>
      </trkpt>
      <trkpt lat="51.151389386504889" lon="6.155594168230891">
        <ele>20.09</ele>
        <time>2018-11-04T11:19:36Z</time>
      </trkpt>
      <trkpt lat="51.151400953531265" lon="6.155656529590488">
        <ele>20.41</ele>
        <time>2018-11-04T11:20:04Z</time>
      </trkpt>
      <trkpt lat="51.151407156139612" lon="6.155653512105346">
        <ele>20.550000000000001</ele>
        <time>2018-11-04T11:20:16Z</time>
      </trkpt>
      <trkpt lat="51.151442946866155" lon="6.155602717772126">
        <ele>20.719999999999999</ele>
        <time>2018-11-04T11:20:29Z</time>
      </trkpt>
      <trkpt lat="51.151392739266157" lon="6.155642028898001">
        <ele>20.859999999999999</ele>
        <time>2018-11-04T11:20:45Z</time>
      </trkpt>
      <trkpt lat="51.151397349312901" lon="6.155631300061941">
        <ele>23.41</ele>
        <time>2018-11-04T11:20:51Z</time>
      </trkpt>
      <trkpt lat="51.151399025693536" lon="6.155627528205514">
        <ele>18.059999999999999</ele>
        <time>2018-11-04T11:20:52Z</time>
      </trkpt>
      <trkpt lat="51.151398606598377" lon="6.155633311718702">
        <ele>23.93</ele>
        <time>2018-11-04T11:20:53Z</time>
      </trkpt>
      <trkpt lat="51.151396678760648" lon="6.155625600367785">
        <ele>18.199999999999999</ele>
        <time>2018-11-04T11:20:58Z</time>
      </trkpt>
      <trkpt lat="51.15139533765614" lon="6.155625097453594">
        <ele>18.210000000000001</ele>
        <time>2018-11-04T11:20:59Z</time>
      </trkpt>
      <trkpt lat="51.151392487809062" lon="6.155624929815531">
        <ele>26.030000000000001</ele>
        <time>2018-11-04T11:21:00Z</time>
      </trkpt>
      <trkpt lat="51.151393409818411" lon="6.155620152130723">
        <ele>22.670000000000002</ele>
        <time>2018-11-04T11:21:01Z</time>
      </trkpt>
      <trkpt lat="51.151396008208394" lon="6.155620152130723">
        <ele>22.010000000000002</ele>
        <time>2018-11-04T11:21:03Z</time>
      </trkpt>
      <trkpt lat="51.151392739266157" lon="6.155638340860605">
        <ele>18.16</ele>
        <time>2018-11-04T11:21:06Z</time>
      </trkpt>
      <trkpt lat="51.151393242180347" lon="6.155644459649921">
        <ele>24.510000000000002</ele>
        <time>2018-11-04T11:21:07Z</time>
      </trkpt>
      <trkpt lat="51.151395170018077" lon="6.155645800754428">
        <ele>21.75</ele>
        <time>2018-11-04T11:21:15Z</time>
      </trkpt>
      <trkpt lat="51.151363989338279" lon="6.155626438558102">
        <ele>20.530000000000001</ele>
        <time>2018-11-04T11:21:22Z</time>
      </trkpt>
      <trkpt lat="51.151364576071501" lon="6.155627695843577">
        <ele>23.920000000000002</ele>
        <time>2018-11-04T11:21:24Z</time>
      </trkpt>
      <trkpt lat="51.151365917176008" lon="6.155627779662609">
        <ele>23.93</ele>
        <time>2018-11-04T11:21:25Z</time>
      </trkpt>
      <trkpt lat="51.151366168633103" lon="6.155630042776465">
        <ele>20.329999999999998</ele>
        <time>2018-11-04T11:21:26Z</time>
      </trkpt>
      <trkpt lat="51.151365078985691" lon="6.155630964785814">
        <ele>23.75</ele>
        <time>2018-11-04T11:21:27Z</time>
      </trkpt>
      <trkpt lat="51.151398774236441" lon="6.155762057751417">
        <ele>23.93</ele>
        <time>2018-11-04T11:21:45Z</time>
      </trkpt>
      <trkpt lat="51.151376897469163" lon="6.155951991677284">
        <ele>24.140000000000001</ele>
        <time>2018-11-04T11:22:01Z</time>
      </trkpt>
      <trkpt lat="51.151342447847128" lon="6.156009491533041">
        <ele>24.370000000000001</ele>
        <time>2018-11-04T11:22:23Z</time>
      </trkpt>
      <trkpt lat="51.151345381513238" lon="6.156007144600153">
        <ele>24.5</ele>
        <time>2018-11-04T11:22:39Z</time>
      </trkpt>
      <trkpt lat="51.151352087035775" lon="6.155990045517683">
        <ele>24.789999999999999</ele>
        <time>2018-11-04T11:23:01Z</time>
      </trkpt>
      <trkpt lat="51.151336077600718" lon="6.155980573967099">
        <ele>25</ele>
        <time>2018-11-04T11:23:20Z</time>
      </trkpt>
      <trkpt lat="51.151365246623755" lon="6.155978310853243">
        <ele>25.280000000000001</ele>
        <time>2018-11-04T11:23:44Z</time>
      </trkpt>
      <trkpt lat="51.151346303522587" lon="6.15601091645658">
        <ele>25.539999999999999</ele>
        <time>2018-11-04T11:24:07Z</time>
      </trkpt>
      <trkpt lat="51.151381926611066" lon="6.155980071052909">
        <ele>25.859999999999999</ele>
        <time>2018-11-04T11:24:29Z</time>
      </trkpt>
      <trkpt lat="51.151357451453805" lon="6.155942436307669">
        <ele>26.18</ele>
        <time>2018-11-04T11:24:53Z</time>
      </trkpt>
      <trkpt lat="51.151314871385694" lon="6.155967330560088">
        <ele>26.510000000000002</ele>
        <time>2018-11-04T11:25:17Z</time>
      </trkpt>
      <trkpt lat="51.151286540552974" lon="6.155980490148068">
        <ele>26.920000000000002</ele>
        <time>2018-11-04T11:25:46Z</time>
      </trkpt>
      <trkpt lat="51.151272123679519" lon="6.155974036082625">
        <ele>27.48</ele>
        <time>2018-11-04T11:26:23Z</time>
      </trkpt>
      <trkpt lat="51.151299197226763" lon="6.155961127951741">
        <ele>27.98</ele>
        <time>2018-11-04T11:26:52Z</time>
      </trkpt>
      <trkpt lat="51.151304729282856" lon="6.156003791838884">
        <ele>-51.509999999999998</ele>
        <time>2018-11-04T11:27:16Z</time>
      </trkpt>
      <trkpt lat="51.151290647685528" lon="6.156068416312337">
        <ele>27.899999999999999</ele>
        <time>2018-11-04T11:27:47Z</time>
      </trkpt>
      <trkpt lat="51.151318978518248" lon="6.156076127663255">
        <ele>28.370000000000001</ele>
        <time>2018-11-04T11:28:15Z</time>
      </trkpt>
      <trkpt lat="51.151328030973673" lon="6.156077133491635">
        <ele>28.629999999999999</ele>
        <time>2018-11-04T11:28:29Z</time>
      </trkpt>
    </trkseg>
  </trk>

</gpx>